<?xml version="1.0" encoding="UTF-8" standalone="no" ?>
<gpx xmlns="http://www.topografix.com/GPX/1/1" xmlns:xsi="http://www.w3.org/2001/XMLSchema-instance" xsi:schemaLocation="http://www.topografix.com/GPX/1/1 http://www.topografix.com/GPX/1/1/gpx.xsd" version="1.1" creator="VisuGPX - https://www.visugpx.com">
  <metadata>
    <name>CHAMBOEUF</name>
    <desc><![CDATA[Marche randonnée classique, sans réelle difficulté.]]></desc>
  </metadata>
  <trk>
    <name><![CDATA[2016-02-16-01]]></name>
    <trkseg>
      <trkpt lat="47.23053" lon="4.90615">
        <ele>498.9</ele>
        <time>2016-02-16T13:11:11Z</time>
      </trkpt>
      <trkpt lat="47.23053" lon="4.90616">
        <ele>499</ele>
        <time>2016-02-16T13:11:12Z</time>
      </trkpt>
      <trkpt lat="47.23062" lon="4.90622">
        <ele>500.6</ele>
        <time>2016-02-16T13:11:24Z</time>
      </trkpt>
      <trkpt lat="47.23071" lon="4.90623">
        <ele>502.4</ele>
        <time>2016-02-16T13:11:42Z</time>
      </trkpt>
      <trkpt lat="47.2308" lon="4.90624">
        <ele>504</ele>
        <time>2016-02-16T13:11:53Z</time>
      </trkpt>
      <trkpt lat="47.2309" lon="4.90628">
        <ele>505.7</ele>
        <time>2016-02-16T13:12:05Z</time>
      </trkpt>
      <trkpt lat="47.23099" lon="4.90632">
        <ele>507.5</ele>
        <time>2016-02-16T13:12:16Z</time>
      </trkpt>
      <trkpt lat="47.23108" lon="4.90636">
        <ele>509.3</ele>
        <time>2016-02-16T13:12:24Z</time>
      </trkpt>
      <trkpt lat="47.23116" lon="4.90643">
        <ele>510.9</ele>
        <time>2016-02-16T13:12:33Z</time>
      </trkpt>
      <trkpt lat="47.23122" lon="4.90655">
        <ele>512.2</ele>
        <time>2016-02-16T13:12:42Z</time>
      </trkpt>
      <trkpt lat="47.23126" lon="4.90667">
        <ele>513.2</ele>
        <time>2016-02-16T13:12:54Z</time>
      </trkpt>
      <trkpt lat="47.23127" lon="4.90681">
        <ele>514.1</ele>
        <time>2016-02-16T13:13:04Z</time>
      </trkpt>
      <trkpt lat="47.23129" lon="4.90696">
        <ele>514.9</ele>
        <time>2016-02-16T13:13:13Z</time>
      </trkpt>
      <trkpt lat="47.23129" lon="4.90709">
        <ele>515.5</ele>
        <time>2016-02-16T13:13:22Z</time>
      </trkpt>
      <trkpt lat="47.2313" lon="4.90722">
        <ele>516.3</ele>
        <time>2016-02-16T13:13:31Z</time>
      </trkpt>
      <trkpt lat="47.2313" lon="4.90736">
        <ele>517</ele>
        <time>2016-02-16T13:13:37Z</time>
      </trkpt>
      <trkpt lat="47.23129" lon="4.9075">
        <ele>517.3</ele>
        <time>2016-02-16T13:13:46Z</time>
      </trkpt>
      <trkpt lat="47.23127" lon="4.90764">
        <ele>517.2</ele>
        <time>2016-02-16T13:13:54Z</time>
      </trkpt>
      <trkpt lat="47.23125" lon="4.90777">
        <ele>517</ele>
        <time>2016-02-16T13:14:03Z</time>
      </trkpt>
      <trkpt lat="47.23123" lon="4.9079">
        <ele>516.8</ele>
        <time>2016-02-16T13:14:10Z</time>
      </trkpt>
      <trkpt lat="47.23121" lon="4.90804">
        <ele>516.5</ele>
        <time>2016-02-16T13:14:17Z</time>
      </trkpt>
      <trkpt lat="47.23121" lon="4.90818">
        <ele>516.8</ele>
        <time>2016-02-16T13:14:26Z</time>
      </trkpt>
      <trkpt lat="47.2312" lon="4.90832">
        <ele>516.9</ele>
        <time>2016-02-16T13:14:35Z</time>
      </trkpt>
      <trkpt lat="47.2312" lon="4.90847">
        <ele>516.2</ele>
        <time>2016-02-16T13:14:44Z</time>
      </trkpt>
      <trkpt lat="47.2312" lon="4.9086">
        <ele>515.6</ele>
        <time>2016-02-16T13:14:52Z</time>
      </trkpt>
      <trkpt lat="47.23119" lon="4.90874">
        <ele>514.9</ele>
        <time>2016-02-16T13:15:00Z</time>
      </trkpt>
      <trkpt lat="47.2312" lon="4.90888">
        <ele>514.4</ele>
        <time>2016-02-16T13:15:09Z</time>
      </trkpt>
      <trkpt lat="47.2312" lon="4.90902">
        <ele>513.9</ele>
        <time>2016-02-16T13:15:17Z</time>
      </trkpt>
      <trkpt lat="47.2312" lon="4.90915">
        <ele>513.4</ele>
        <time>2016-02-16T13:15:24Z</time>
      </trkpt>
      <trkpt lat="47.23122" lon="4.9093">
        <ele>513</ele>
        <time>2016-02-16T13:15:31Z</time>
      </trkpt>
      <trkpt lat="47.23124" lon="4.90943">
        <ele>512.7</ele>
        <time>2016-02-16T13:15:39Z</time>
      </trkpt>
      <trkpt lat="47.23127" lon="4.90957">
        <ele>512.6</ele>
        <time>2016-02-16T13:15:47Z</time>
      </trkpt>
      <trkpt lat="47.2313" lon="4.90971">
        <ele>512.5</ele>
        <time>2016-02-16T13:15:55Z</time>
      </trkpt>
      <trkpt lat="47.23133" lon="4.90985">
        <ele>512.4</ele>
        <time>2016-02-16T13:16:02Z</time>
      </trkpt>
      <trkpt lat="47.23136" lon="4.90999">
        <ele>512.1</ele>
        <time>2016-02-16T13:16:09Z</time>
      </trkpt>
      <trkpt lat="47.23139" lon="4.91012">
        <ele>511.4</ele>
        <time>2016-02-16T13:16:18Z</time>
      </trkpt>
      <trkpt lat="47.23144" lon="4.91024">
        <ele>511.3</ele>
        <time>2016-02-16T13:16:26Z</time>
      </trkpt>
      <trkpt lat="47.23149" lon="4.91036">
        <ele>510.7</ele>
        <time>2016-02-16T13:16:34Z</time>
      </trkpt>
      <trkpt lat="47.23155" lon="4.91048">
        <ele>510.2</ele>
        <time>2016-02-16T13:16:43Z</time>
      </trkpt>
      <trkpt lat="47.23159" lon="4.91061">
        <ele>509.2</ele>
        <time>2016-02-16T13:16:51Z</time>
      </trkpt>
      <trkpt lat="47.23162" lon="4.91075">
        <ele>507.7</ele>
        <time>2016-02-16T13:16:59Z</time>
      </trkpt>
      <trkpt lat="47.23167" lon="4.91087">
        <ele>506.8</ele>
        <time>2016-02-16T13:17:07Z</time>
      </trkpt>
      <trkpt lat="47.23172" lon="4.91099">
        <ele>506.2</ele>
        <time>2016-02-16T13:17:17Z</time>
      </trkpt>
      <trkpt lat="47.23178" lon="4.91111">
        <ele>505.5</ele>
        <time>2016-02-16T13:17:25Z</time>
      </trkpt>
      <trkpt lat="47.23182" lon="4.91124">
        <ele>504.7</ele>
        <time>2016-02-16T13:17:32Z</time>
      </trkpt>
      <trkpt lat="47.2319" lon="4.91133">
        <ele>504.1</ele>
        <time>2016-02-16T13:17:42Z</time>
      </trkpt>
      <trkpt lat="47.23195" lon="4.91145">
        <ele>503.1</ele>
        <time>2016-02-16T13:17:51Z</time>
      </trkpt>
      <trkpt lat="47.232" lon="4.91157">
        <ele>502.1</ele>
        <time>2016-02-16T13:17:59Z</time>
      </trkpt>
      <trkpt lat="47.23204" lon="4.91169">
        <ele>501</ele>
        <time>2016-02-16T13:18:06Z</time>
      </trkpt>
      <trkpt lat="47.23211" lon="4.91178">
        <ele>500.2</ele>
        <time>2016-02-16T13:18:15Z</time>
      </trkpt>
      <trkpt lat="47.23215" lon="4.9119">
        <ele>499.2</ele>
        <time>2016-02-16T13:18:22Z</time>
      </trkpt>
      <trkpt lat="47.23221" lon="4.912">
        <ele>498.4</ele>
        <time>2016-02-16T13:18:29Z</time>
      </trkpt>
      <trkpt lat="47.23226" lon="4.91211">
        <ele>497.4</ele>
        <time>2016-02-16T13:18:36Z</time>
      </trkpt>
      <trkpt lat="47.23232" lon="4.91222">
        <ele>496.5</ele>
        <time>2016-02-16T13:18:44Z</time>
      </trkpt>
      <trkpt lat="47.23237" lon="4.91234">
        <ele>495.5</ele>
        <time>2016-02-16T13:18:51Z</time>
      </trkpt>
      <trkpt lat="47.23241" lon="4.91246">
        <ele>494.5</ele>
        <time>2016-02-16T13:18:59Z</time>
      </trkpt>
      <trkpt lat="47.23246" lon="4.91259">
        <ele>493.9</ele>
        <time>2016-02-16T13:19:06Z</time>
      </trkpt>
      <trkpt lat="47.2325" lon="4.91272">
        <ele>493.5</ele>
        <time>2016-02-16T13:19:12Z</time>
      </trkpt>
      <trkpt lat="47.23256" lon="4.91284">
        <ele>493.1</ele>
        <time>2016-02-16T13:19:19Z</time>
      </trkpt>
      <trkpt lat="47.23263" lon="4.91294">
        <ele>492.8</ele>
        <time>2016-02-16T13:19:26Z</time>
      </trkpt>
      <trkpt lat="47.23271" lon="4.91302">
        <ele>492.4</ele>
        <time>2016-02-16T13:19:35Z</time>
      </trkpt>
      <trkpt lat="47.23278" lon="4.91311">
        <ele>492.1</ele>
        <time>2016-02-16T13:19:43Z</time>
      </trkpt>
      <trkpt lat="47.23286" lon="4.91319">
        <ele>491.7</ele>
        <time>2016-02-16T13:19:51Z</time>
      </trkpt>
      <trkpt lat="47.23294" lon="4.91325">
        <ele>491.2</ele>
        <time>2016-02-16T13:19:59Z</time>
      </trkpt>
      <trkpt lat="47.23302" lon="4.91331">
        <ele>490.9</ele>
        <time>2016-02-16T13:20:06Z</time>
      </trkpt>
      <trkpt lat="47.23309" lon="4.9134">
        <ele>490.5</ele>
        <time>2016-02-16T13:20:13Z</time>
      </trkpt>
      <trkpt lat="47.23316" lon="4.91351">
        <ele>490.2</ele>
        <time>2016-02-16T13:20:21Z</time>
      </trkpt>
      <trkpt lat="47.23324" lon="4.91358">
        <ele>489.9</ele>
        <time>2016-02-16T13:20:28Z</time>
      </trkpt>
      <trkpt lat="47.23332" lon="4.91367">
        <ele>489.6</ele>
        <time>2016-02-16T13:20:35Z</time>
      </trkpt>
      <trkpt lat="47.23339" lon="4.91374">
        <ele>489.5</ele>
        <time>2016-02-16T13:20:42Z</time>
      </trkpt>
      <trkpt lat="47.23348" lon="4.91379">
        <ele>489.4</ele>
        <time>2016-02-16T13:20:50Z</time>
      </trkpt>
      <trkpt lat="47.23356" lon="4.91384">
        <ele>489.4</ele>
        <time>2016-02-16T13:20:58Z</time>
      </trkpt>
      <trkpt lat="47.23366" lon="4.91389">
        <ele>489.2</ele>
        <time>2016-02-16T13:21:06Z</time>
      </trkpt>
      <trkpt lat="47.23375" lon="4.91394">
        <ele>489.1</ele>
        <time>2016-02-16T13:21:13Z</time>
      </trkpt>
      <trkpt lat="47.23384" lon="4.914">
        <ele>488.8</ele>
        <time>2016-02-16T13:21:21Z</time>
      </trkpt>
      <trkpt lat="47.23393" lon="4.91405">
        <ele>488.6</ele>
        <time>2016-02-16T13:21:29Z</time>
      </trkpt>
      <trkpt lat="47.23403" lon="4.91408">
        <ele>488.5</ele>
        <time>2016-02-16T13:21:37Z</time>
      </trkpt>
      <trkpt lat="47.23413" lon="4.9141">
        <ele>488.3</ele>
        <time>2016-02-16T13:21:44Z</time>
      </trkpt>
      <trkpt lat="47.23422" lon="4.91413">
        <ele>488.1</ele>
        <time>2016-02-16T13:21:52Z</time>
      </trkpt>
      <trkpt lat="47.23431" lon="4.91415">
        <ele>488</ele>
        <time>2016-02-16T13:22:00Z</time>
      </trkpt>
      <trkpt lat="47.23441" lon="4.91418">
        <ele>488</ele>
        <time>2016-02-16T13:22:08Z</time>
      </trkpt>
      <trkpt lat="47.2345" lon="4.91421">
        <ele>487.9</ele>
        <time>2016-02-16T13:22:16Z</time>
      </trkpt>
      <trkpt lat="47.23459" lon="4.91426">
        <ele>487.9</ele>
        <time>2016-02-16T13:22:24Z</time>
      </trkpt>
      <trkpt lat="47.23468" lon="4.91431">
        <ele>487.8</ele>
        <time>2016-02-16T13:22:32Z</time>
      </trkpt>
      <trkpt lat="47.23477" lon="4.91437">
        <ele>487.7</ele>
        <time>2016-02-16T13:22:40Z</time>
      </trkpt>
      <trkpt lat="47.23486" lon="4.91444">
        <ele>487.6</ele>
        <time>2016-02-16T13:22:49Z</time>
      </trkpt>
      <trkpt lat="47.23494" lon="4.91452">
        <ele>487.5</ele>
        <time>2016-02-16T13:22:57Z</time>
      </trkpt>
      <trkpt lat="47.23502" lon="4.9146">
        <ele>487.5</ele>
        <time>2016-02-16T13:23:05Z</time>
      </trkpt>
      <trkpt lat="47.23509" lon="4.91468">
        <ele>487.4</ele>
        <time>2016-02-16T13:23:12Z</time>
      </trkpt>
      <trkpt lat="47.23517" lon="4.91477">
        <ele>487.3</ele>
        <time>2016-02-16T13:23:20Z</time>
      </trkpt>
      <trkpt lat="47.23525" lon="4.91483">
        <ele>487.2</ele>
        <time>2016-02-16T13:23:28Z</time>
      </trkpt>
      <trkpt lat="47.23533" lon="4.91489">
        <ele>487.1</ele>
        <time>2016-02-16T13:23:35Z</time>
      </trkpt>
      <trkpt lat="47.23542" lon="4.91494">
        <ele>487.1</ele>
        <time>2016-02-16T13:23:42Z</time>
      </trkpt>
      <trkpt lat="47.23551" lon="4.91499">
        <ele>487</ele>
        <time>2016-02-16T13:23:50Z</time>
      </trkpt>
      <trkpt lat="47.23561" lon="4.91505">
        <ele>487</ele>
        <time>2016-02-16T13:23:58Z</time>
      </trkpt>
      <trkpt lat="47.2357" lon="4.91509">
        <ele>487</ele>
        <time>2016-02-16T13:24:06Z</time>
      </trkpt>
      <trkpt lat="47.23579" lon="4.91512">
        <ele>487.1</ele>
        <time>2016-02-16T13:24:14Z</time>
      </trkpt>
      <trkpt lat="47.23589" lon="4.91515">
        <ele>487.4</ele>
        <time>2016-02-16T13:24:22Z</time>
      </trkpt>
      <trkpt lat="47.23598" lon="4.91518">
        <ele>487.8</ele>
        <time>2016-02-16T13:24:29Z</time>
      </trkpt>
      <trkpt lat="47.23607" lon="4.91521">
        <ele>488.3</ele>
        <time>2016-02-16T13:24:37Z</time>
      </trkpt>
      <trkpt lat="47.23616" lon="4.91526">
        <ele>488.9</ele>
        <time>2016-02-16T13:24:44Z</time>
      </trkpt>
      <trkpt lat="47.23625" lon="4.91533">
        <ele>489.5</ele>
        <time>2016-02-16T13:24:52Z</time>
      </trkpt>
      <trkpt lat="47.23632" lon="4.91544">
        <ele>490.2</ele>
        <time>2016-02-16T13:25:00Z</time>
      </trkpt>
      <trkpt lat="47.23639" lon="4.91554">
        <ele>490.9</ele>
        <time>2016-02-16T13:25:08Z</time>
      </trkpt>
      <trkpt lat="47.23644" lon="4.91566">
        <ele>491.8</ele>
        <time>2016-02-16T13:25:16Z</time>
      </trkpt>
      <trkpt lat="47.2365" lon="4.91577">
        <ele>492.5</ele>
        <time>2016-02-16T13:25:23Z</time>
      </trkpt>
      <trkpt lat="47.23654" lon="4.9159">
        <ele>493.4</ele>
        <time>2016-02-16T13:25:31Z</time>
      </trkpt>
      <trkpt lat="47.23656" lon="4.91604">
        <ele>494.3</ele>
        <time>2016-02-16T13:25:39Z</time>
      </trkpt>
      <trkpt lat="47.23656" lon="4.91618">
        <ele>495.3</ele>
        <time>2016-02-16T13:25:48Z</time>
      </trkpt>
      <trkpt lat="47.23657" lon="4.91632">
        <ele>496.1</ele>
        <time>2016-02-16T13:25:57Z</time>
      </trkpt>
      <trkpt lat="47.23659" lon="4.91646">
        <ele>497.1</ele>
        <time>2016-02-16T13:26:06Z</time>
      </trkpt>
      <trkpt lat="47.23661" lon="4.9166">
        <ele>498</ele>
        <time>2016-02-16T13:26:15Z</time>
      </trkpt>
      <trkpt lat="47.23663" lon="4.91673">
        <ele>498.9</ele>
        <time>2016-02-16T13:26:23Z</time>
      </trkpt>
      <trkpt lat="47.23666" lon="4.91688">
        <ele>499.7</ele>
        <time>2016-02-16T13:26:32Z</time>
      </trkpt>
      <trkpt lat="47.23669" lon="4.91702">
        <ele>500.4</ele>
        <time>2016-02-16T13:26:40Z</time>
      </trkpt>
      <trkpt lat="47.23672" lon="4.91716">
        <ele>501.1</ele>
        <time>2016-02-16T13:26:49Z</time>
      </trkpt>
      <trkpt lat="47.23674" lon="4.91729">
        <ele>501.8</ele>
        <time>2016-02-16T13:26:57Z</time>
      </trkpt>
      <trkpt lat="47.23676" lon="4.91742">
        <ele>502.5</ele>
        <time>2016-02-16T13:27:05Z</time>
      </trkpt>
      <trkpt lat="47.23678" lon="4.91755">
        <ele>503.1</ele>
        <time>2016-02-16T13:27:32Z</time>
      </trkpt>
      <trkpt lat="47.23682" lon="4.91767">
        <ele>503.7</ele>
        <time>2016-02-16T13:27:41Z</time>
      </trkpt>
      <trkpt lat="47.23685" lon="4.91781">
        <ele>504.2</ele>
        <time>2016-02-16T13:27:49Z</time>
      </trkpt>
      <trkpt lat="47.23687" lon="4.91795">
        <ele>504.8</ele>
        <time>2016-02-16T13:27:57Z</time>
      </trkpt>
      <trkpt lat="47.23691" lon="4.91807">
        <ele>505.4</ele>
        <time>2016-02-16T13:28:05Z</time>
      </trkpt>
      <trkpt lat="47.23694" lon="4.91821">
        <ele>506</ele>
        <time>2016-02-16T13:28:14Z</time>
      </trkpt>
      <trkpt lat="47.23697" lon="4.91835">
        <ele>506.6</ele>
        <time>2016-02-16T13:28:23Z</time>
      </trkpt>
      <trkpt lat="47.23701" lon="4.91848">
        <ele>506.9</ele>
        <time>2016-02-16T13:28:33Z</time>
      </trkpt>
      <trkpt lat="47.23702" lon="4.91863">
        <ele>507.2</ele>
        <time>2016-02-16T13:28:41Z</time>
      </trkpt>
      <trkpt lat="47.23704" lon="4.91875">
        <ele>507.4</ele>
        <time>2016-02-16T13:28:49Z</time>
      </trkpt>
      <trkpt lat="47.23708" lon="4.91889">
        <ele>507.8</ele>
        <time>2016-02-16T13:28:58Z</time>
      </trkpt>
      <trkpt lat="47.2371" lon="4.91903">
        <ele>508.1</ele>
        <time>2016-02-16T13:29:06Z</time>
      </trkpt>
      <trkpt lat="47.23712" lon="4.91916">
        <ele>508.3</ele>
        <time>2016-02-16T13:29:13Z</time>
      </trkpt>
      <trkpt lat="47.23715" lon="4.9193">
        <ele>508.5</ele>
        <time>2016-02-16T13:29:21Z</time>
      </trkpt>
      <trkpt lat="47.23717" lon="4.91944">
        <ele>508.7</ele>
        <time>2016-02-16T13:29:43Z</time>
      </trkpt>
      <trkpt lat="47.2372" lon="4.91958">
        <ele>508.9</ele>
        <time>2016-02-16T13:29:52Z</time>
      </trkpt>
      <trkpt lat="47.23722" lon="4.91972">
        <ele>509</ele>
        <time>2016-02-16T13:30:01Z</time>
      </trkpt>
      <trkpt lat="47.23724" lon="4.91985">
        <ele>509.1</ele>
        <time>2016-02-16T13:30:09Z</time>
      </trkpt>
      <trkpt lat="47.23726" lon="4.91999">
        <ele>509.1</ele>
        <time>2016-02-16T13:30:18Z</time>
      </trkpt>
      <trkpt lat="47.23729" lon="4.92013">
        <ele>509.6</ele>
        <time>2016-02-16T13:30:28Z</time>
      </trkpt>
      <trkpt lat="47.23732" lon="4.92027">
        <ele>510.1</ele>
        <time>2016-02-16T13:30:37Z</time>
      </trkpt>
      <trkpt lat="47.23738" lon="4.92037">
        <ele>510.6</ele>
        <time>2016-02-16T13:30:47Z</time>
      </trkpt>
      <trkpt lat="47.23745" lon="4.92047">
        <ele>511</ele>
        <time>2016-02-16T13:30:57Z</time>
      </trkpt>
      <trkpt lat="47.23751" lon="4.92057">
        <ele>511.4</ele>
        <time>2016-02-16T13:31:10Z</time>
      </trkpt>
      <trkpt lat="47.23758" lon="4.92066">
        <ele>511.9</ele>
        <time>2016-02-16T13:34:34Z</time>
      </trkpt>
      <trkpt lat="47.23765" lon="4.92076">
        <ele>512.4</ele>
        <time>2016-02-16T13:34:43Z</time>
      </trkpt>
      <trkpt lat="47.23772" lon="4.92084">
        <ele>512.8</ele>
        <time>2016-02-16T13:34:53Z</time>
      </trkpt>
      <trkpt lat="47.2378" lon="4.92091">
        <ele>513.4</ele>
        <time>2016-02-16T13:35:04Z</time>
      </trkpt>
      <trkpt lat="47.23788" lon="4.92099">
        <ele>513.9</ele>
        <time>2016-02-16T13:35:15Z</time>
      </trkpt>
      <trkpt lat="47.23796" lon="4.92107">
        <ele>514.3</ele>
        <time>2016-02-16T13:35:24Z</time>
      </trkpt>
      <trkpt lat="47.23804" lon="4.92115">
        <ele>514.7</ele>
        <time>2016-02-16T13:35:33Z</time>
      </trkpt>
      <trkpt lat="47.23812" lon="4.92122">
        <ele>515.1</ele>
        <time>2016-02-16T13:35:43Z</time>
      </trkpt>
      <trkpt lat="47.23819" lon="4.92132">
        <ele>515.4</ele>
        <time>2016-02-16T13:35:52Z</time>
      </trkpt>
      <trkpt lat="47.23827" lon="4.92138">
        <ele>515.6</ele>
        <time>2016-02-16T13:36:01Z</time>
      </trkpt>
      <trkpt lat="47.23836" lon="4.92144">
        <ele>515.8</ele>
        <time>2016-02-16T13:36:10Z</time>
      </trkpt>
      <trkpt lat="47.23845" lon="4.9215">
        <ele>516.3</ele>
        <time>2016-02-16T13:36:18Z</time>
      </trkpt>
      <trkpt lat="47.23853" lon="4.92156">
        <ele>516.6</ele>
        <time>2016-02-16T13:36:27Z</time>
      </trkpt>
      <trkpt lat="47.23861" lon="4.92163">
        <ele>517</ele>
        <time>2016-02-16T13:36:35Z</time>
      </trkpt>
      <trkpt lat="47.2387" lon="4.9217">
        <ele>517.3</ele>
        <time>2016-02-16T13:36:44Z</time>
      </trkpt>
      <trkpt lat="47.23877" lon="4.92179">
        <ele>517.6</ele>
        <time>2016-02-16T13:36:53Z</time>
      </trkpt>
      <trkpt lat="47.23885" lon="4.92188">
        <ele>517.8</ele>
        <time>2016-02-16T13:37:02Z</time>
      </trkpt>
      <trkpt lat="47.23892" lon="4.92197">
        <ele>517.9</ele>
        <time>2016-02-16T13:37:10Z</time>
      </trkpt>
      <trkpt lat="47.23899" lon="4.92207">
        <ele>517.9</ele>
        <time>2016-02-16T13:37:17Z</time>
      </trkpt>
      <trkpt lat="47.23904" lon="4.92218">
        <ele>517.8</ele>
        <time>2016-02-16T13:37:26Z</time>
      </trkpt>
      <trkpt lat="47.2391" lon="4.92229">
        <ele>517.6</ele>
        <time>2016-02-16T13:37:35Z</time>
      </trkpt>
      <trkpt lat="47.23917" lon="4.9224">
        <ele>517.3</ele>
        <time>2016-02-16T13:37:42Z</time>
      </trkpt>
      <trkpt lat="47.23922" lon="4.92251">
        <ele>517.2</ele>
        <time>2016-02-16T13:37:50Z</time>
      </trkpt>
      <trkpt lat="47.23928" lon="4.92262">
        <ele>517.5</ele>
        <time>2016-02-16T13:37:58Z</time>
      </trkpt>
      <trkpt lat="47.23937" lon="4.92269">
        <ele>517.8</ele>
        <time>2016-02-16T13:38:06Z</time>
      </trkpt>
      <trkpt lat="47.23943" lon="4.92279">
        <ele>518.1</ele>
        <time>2016-02-16T13:38:14Z</time>
      </trkpt>
      <trkpt lat="47.23949" lon="4.9229">
        <ele>518.3</ele>
        <time>2016-02-16T13:38:22Z</time>
      </trkpt>
      <trkpt lat="47.23956" lon="4.923">
        <ele>518.6</ele>
        <time>2016-02-16T13:38:31Z</time>
      </trkpt>
      <trkpt lat="47.23962" lon="4.9231">
        <ele>518.7</ele>
        <time>2016-02-16T13:38:39Z</time>
      </trkpt>
      <trkpt lat="47.23968" lon="4.92321">
        <ele>518.9</ele>
        <time>2016-02-16T13:38:47Z</time>
      </trkpt>
      <trkpt lat="47.23975" lon="4.9233">
        <ele>519</ele>
        <time>2016-02-16T13:38:55Z</time>
      </trkpt>
      <trkpt lat="47.23981" lon="4.92341">
        <ele>519</ele>
        <time>2016-02-16T13:39:02Z</time>
      </trkpt>
      <trkpt lat="47.23986" lon="4.92354">
        <ele>518.9</ele>
        <time>2016-02-16T13:39:10Z</time>
      </trkpt>
      <trkpt lat="47.23992" lon="4.92364">
        <ele>518.7</ele>
        <time>2016-02-16T13:39:18Z</time>
      </trkpt>
      <trkpt lat="47.23999" lon="4.92374">
        <ele>518.5</ele>
        <time>2016-02-16T13:39:27Z</time>
      </trkpt>
      <trkpt lat="47.24007" lon="4.92381">
        <ele>518.4</ele>
        <time>2016-02-16T13:39:35Z</time>
      </trkpt>
      <trkpt lat="47.24015" lon="4.92389">
        <ele>518.3</ele>
        <time>2016-02-16T13:39:43Z</time>
      </trkpt>
      <trkpt lat="47.24022" lon="4.92397">
        <ele>518.2</ele>
        <time>2016-02-16T13:39:51Z</time>
      </trkpt>
      <trkpt lat="47.24029" lon="4.92406">
        <ele>518.1</ele>
        <time>2016-02-16T13:40:00Z</time>
      </trkpt>
      <trkpt lat="47.24036" lon="4.92414">
        <ele>518</ele>
        <time>2016-02-16T13:40:08Z</time>
      </trkpt>
      <trkpt lat="47.24046" lon="4.9242">
        <ele>518</ele>
        <time>2016-02-16T13:40:16Z</time>
      </trkpt>
      <trkpt lat="47.24055" lon="4.92422">
        <ele>518</ele>
        <time>2016-02-16T13:40:23Z</time>
      </trkpt>
      <trkpt lat="47.24064" lon="4.92424">
        <ele>517.9</ele>
        <time>2016-02-16T13:40:32Z</time>
      </trkpt>
      <trkpt lat="47.24074" lon="4.92424">
        <ele>517.9</ele>
        <time>2016-02-16T13:40:41Z</time>
      </trkpt>
      <trkpt lat="47.24083" lon="4.92427">
        <ele>517.9</ele>
        <time>2016-02-16T13:40:50Z</time>
      </trkpt>
      <trkpt lat="47.24093" lon="4.92428">
        <ele>517.9</ele>
        <time>2016-02-16T13:40:58Z</time>
      </trkpt>
      <trkpt lat="47.24103" lon="4.92427">
        <ele>517.9</ele>
        <time>2016-02-16T13:41:07Z</time>
      </trkpt>
      <trkpt lat="47.24112" lon="4.92428">
        <ele>517.9</ele>
        <time>2016-02-16T13:41:15Z</time>
      </trkpt>
      <trkpt lat="47.24122" lon="4.92429">
        <ele>517.9</ele>
        <time>2016-02-16T13:41:23Z</time>
      </trkpt>
      <trkpt lat="47.24132" lon="4.92431">
        <ele>517.9</ele>
        <time>2016-02-16T13:41:31Z</time>
      </trkpt>
      <trkpt lat="47.24141" lon="4.92432">
        <ele>517.9</ele>
        <time>2016-02-16T13:41:38Z</time>
      </trkpt>
      <trkpt lat="47.24151" lon="4.92434">
        <ele>518</ele>
        <time>2016-02-16T13:41:46Z</time>
      </trkpt>
      <trkpt lat="47.24161" lon="4.92435">
        <ele>518</ele>
        <time>2016-02-16T13:41:54Z</time>
      </trkpt>
      <trkpt lat="47.24171" lon="4.92436">
        <ele>518.3</ele>
        <time>2016-02-16T13:42:02Z</time>
      </trkpt>
      <trkpt lat="47.24181" lon="4.92438">
        <ele>519</ele>
        <time>2016-02-16T13:42:10Z</time>
      </trkpt>
      <trkpt lat="47.2419" lon="4.92439">
        <ele>519.7</ele>
        <time>2016-02-16T13:42:18Z</time>
      </trkpt>
      <trkpt lat="47.242" lon="4.9244">
        <ele>520.4</ele>
        <time>2016-02-16T13:42:27Z</time>
      </trkpt>
      <trkpt lat="47.24209" lon="4.92442">
        <ele>521</ele>
        <time>2016-02-16T13:42:36Z</time>
      </trkpt>
      <trkpt lat="47.24218" lon="4.92443">
        <ele>521.7</ele>
        <time>2016-02-16T13:42:43Z</time>
      </trkpt>
      <trkpt lat="47.24227" lon="4.92445">
        <ele>522.4</ele>
        <time>2016-02-16T13:42:51Z</time>
      </trkpt>
      <trkpt lat="47.24237" lon="4.92447">
        <ele>523.1</ele>
        <time>2016-02-16T13:43:01Z</time>
      </trkpt>
      <trkpt lat="47.24247" lon="4.92449">
        <ele>523.8</ele>
        <time>2016-02-16T13:43:11Z</time>
      </trkpt>
      <trkpt lat="47.24256" lon="4.9245">
        <ele>524.3</ele>
        <time>2016-02-16T13:43:34Z</time>
      </trkpt>
      <trkpt lat="47.24265" lon="4.92451">
        <ele>524.9</ele>
        <time>2016-02-16T13:43:44Z</time>
      </trkpt>
      <trkpt lat="47.24274" lon="4.92453">
        <ele>525.4</ele>
        <time>2016-02-16T13:43:51Z</time>
      </trkpt>
      <trkpt lat="47.24284" lon="4.92454">
        <ele>526</ele>
        <time>2016-02-16T13:43:58Z</time>
      </trkpt>
      <trkpt lat="47.24293" lon="4.92457">
        <ele>526.5</ele>
        <time>2016-02-16T13:44:06Z</time>
      </trkpt>
      <trkpt lat="47.24302" lon="4.92459">
        <ele>527.1</ele>
        <time>2016-02-16T13:44:15Z</time>
      </trkpt>
      <trkpt lat="47.24312" lon="4.9246">
        <ele>527.7</ele>
        <time>2016-02-16T13:44:27Z</time>
      </trkpt>
      <trkpt lat="47.24321" lon="4.92462">
        <ele>528.3</ele>
        <time>2016-02-16T13:44:34Z</time>
      </trkpt>
      <trkpt lat="47.24331" lon="4.92463">
        <ele>528.9</ele>
        <time>2016-02-16T13:44:41Z</time>
      </trkpt>
      <trkpt lat="47.2434" lon="4.92465">
        <ele>529.7</ele>
        <time>2016-02-16T13:44:47Z</time>
      </trkpt>
      <trkpt lat="47.24349" lon="4.92467">
        <ele>530.6</ele>
        <time>2016-02-16T13:44:53Z</time>
      </trkpt>
      <trkpt lat="47.2436" lon="4.92468">
        <ele>531.5</ele>
        <time>2016-02-16T13:45:01Z</time>
      </trkpt>
      <trkpt lat="47.24369" lon="4.92469">
        <ele>532.4</ele>
        <time>2016-02-16T13:45:09Z</time>
      </trkpt>
      <trkpt lat="47.24378" lon="4.9247">
        <ele>533.2</ele>
        <time>2016-02-16T13:45:16Z</time>
      </trkpt>
      <trkpt lat="47.24388" lon="4.92471">
        <ele>534.1</ele>
        <time>2016-02-16T13:45:24Z</time>
      </trkpt>
      <trkpt lat="47.24397" lon="4.92473">
        <ele>534.9</ele>
        <time>2016-02-16T13:45:32Z</time>
      </trkpt>
      <trkpt lat="47.24407" lon="4.92474">
        <ele>535.8</ele>
        <time>2016-02-16T13:45:41Z</time>
      </trkpt>
      <trkpt lat="47.24417" lon="4.92474">
        <ele>536.7</ele>
        <time>2016-02-16T13:45:53Z</time>
      </trkpt>
      <trkpt lat="47.24426" lon="4.92467">
        <ele>536.8</ele>
        <time>2016-02-16T13:46:17Z</time>
      </trkpt>
      <trkpt lat="47.24435" lon="4.92467">
        <ele>536.9</ele>
        <time>2016-02-16T13:46:27Z</time>
      </trkpt>
      <trkpt lat="47.24444" lon="4.92469">
        <ele>537.1</ele>
        <time>2016-02-16T13:46:38Z</time>
      </trkpt>
      <trkpt lat="47.24454" lon="4.92471">
        <ele>537.2</ele>
        <time>2016-02-16T13:46:47Z</time>
      </trkpt>
      <trkpt lat="47.24464" lon="4.92472">
        <ele>537.4</ele>
        <time>2016-02-16T13:46:56Z</time>
      </trkpt>
      <trkpt lat="47.24473" lon="4.92475">
        <ele>537.6</ele>
        <time>2016-02-16T13:47:08Z</time>
      </trkpt>
      <trkpt lat="47.24482" lon="4.92474">
        <ele>537.7</ele>
        <time>2016-02-16T13:47:26Z</time>
      </trkpt>
      <trkpt lat="47.24492" lon="4.92478">
        <ele>537.9</ele>
        <time>2016-02-16T13:47:47Z</time>
      </trkpt>
      <trkpt lat="47.245" lon="4.92481">
        <ele>538</ele>
        <time>2016-02-16T13:47:55Z</time>
      </trkpt>
      <trkpt lat="47.2451" lon="4.92483">
        <ele>537.7</ele>
        <time>2016-02-16T13:48:02Z</time>
      </trkpt>
      <trkpt lat="47.24519" lon="4.92488">
        <ele>537.3</ele>
        <time>2016-02-16T13:48:12Z</time>
      </trkpt>
      <trkpt lat="47.24528" lon="4.92493">
        <ele>537</ele>
        <time>2016-02-16T13:48:22Z</time>
      </trkpt>
      <trkpt lat="47.24538" lon="4.92495">
        <ele>536.7</ele>
        <time>2016-02-16T13:48:29Z</time>
      </trkpt>
      <trkpt lat="47.24547" lon="4.92499">
        <ele>536.3</ele>
        <time>2016-02-16T13:48:35Z</time>
      </trkpt>
      <trkpt lat="47.24555" lon="4.92503">
        <ele>536</ele>
        <time>2016-02-16T13:48:40Z</time>
      </trkpt>
      <trkpt lat="47.24564" lon="4.92507">
        <ele>535.7</ele>
        <time>2016-02-16T13:48:47Z</time>
      </trkpt>
      <trkpt lat="47.24573" lon="4.92511">
        <ele>535.4</ele>
        <time>2016-02-16T13:48:53Z</time>
      </trkpt>
      <trkpt lat="47.24582" lon="4.92514">
        <ele>535.1</ele>
        <time>2016-02-16T13:48:59Z</time>
      </trkpt>
      <trkpt lat="47.24591" lon="4.92518">
        <ele>534.8</ele>
        <time>2016-02-16T13:49:06Z</time>
      </trkpt>
      <trkpt lat="47.24601" lon="4.92519">
        <ele>534.6</ele>
        <time>2016-02-16T13:49:13Z</time>
      </trkpt>
      <trkpt lat="47.2461" lon="4.92526">
        <ele>534.5</ele>
        <time>2016-02-16T13:49:20Z</time>
      </trkpt>
      <trkpt lat="47.24619" lon="4.92531">
        <ele>534.3</ele>
        <time>2016-02-16T13:49:29Z</time>
      </trkpt>
      <trkpt lat="47.24628" lon="4.92535">
        <ele>534.1</ele>
        <time>2016-02-16T13:49:36Z</time>
      </trkpt>
      <trkpt lat="47.24637" lon="4.92541">
        <ele>534</ele>
        <time>2016-02-16T13:49:47Z</time>
      </trkpt>
      <trkpt lat="47.24646" lon="4.92548">
        <ele>533.9</ele>
        <time>2016-02-16T13:49:55Z</time>
      </trkpt>
      <trkpt lat="47.24655" lon="4.92553">
        <ele>533.8</ele>
        <time>2016-02-16T13:50:01Z</time>
      </trkpt>
      <trkpt lat="47.24664" lon="4.92561">
        <ele>533.8</ele>
        <time>2016-02-16T13:50:07Z</time>
      </trkpt>
      <trkpt lat="47.24672" lon="4.92568">
        <ele>533.6</ele>
        <time>2016-02-16T13:50:14Z</time>
      </trkpt>
      <trkpt lat="47.2468" lon="4.92574">
        <ele>533.4</ele>
        <time>2016-02-16T13:50:20Z</time>
      </trkpt>
      <trkpt lat="47.24688" lon="4.92581">
        <ele>533.2</ele>
        <time>2016-02-16T13:50:26Z</time>
      </trkpt>
      <trkpt lat="47.24697" lon="4.92587">
        <ele>532.9</ele>
        <time>2016-02-16T13:50:33Z</time>
      </trkpt>
      <trkpt lat="47.24704" lon="4.92597">
        <ele>532.7</ele>
        <time>2016-02-16T13:50:41Z</time>
      </trkpt>
      <trkpt lat="47.24712" lon="4.92604">
        <ele>532.4</ele>
        <time>2016-02-16T13:50:48Z</time>
      </trkpt>
      <trkpt lat="47.24721" lon="4.9261">
        <ele>532.1</ele>
        <time>2016-02-16T13:50:55Z</time>
      </trkpt>
      <trkpt lat="47.24729" lon="4.92617">
        <ele>531.8</ele>
        <time>2016-02-16T13:51:03Z</time>
      </trkpt>
      <trkpt lat="47.24737" lon="4.92622">
        <ele>531.5</ele>
        <time>2016-02-16T13:51:14Z</time>
      </trkpt>
      <trkpt lat="47.24745" lon="4.92628">
        <ele>531.2</ele>
        <time>2016-02-16T13:51:21Z</time>
      </trkpt>
      <trkpt lat="47.24754" lon="4.92633">
        <ele>530.9</ele>
        <time>2016-02-16T13:51:28Z</time>
      </trkpt>
      <trkpt lat="47.24761" lon="4.92642">
        <ele>530.8</ele>
        <time>2016-02-16T13:51:39Z</time>
      </trkpt>
      <trkpt lat="47.2477" lon="4.92646">
        <ele>530.6</ele>
        <time>2016-02-16T13:51:46Z</time>
      </trkpt>
      <trkpt lat="47.24779" lon="4.92649">
        <ele>530.4</ele>
        <time>2016-02-16T13:51:51Z</time>
      </trkpt>
      <trkpt lat="47.24788" lon="4.92653">
        <ele>530.2</ele>
        <time>2016-02-16T13:51:58Z</time>
      </trkpt>
      <trkpt lat="47.24797" lon="4.92658">
        <ele>529.9</ele>
        <time>2016-02-16T13:52:09Z</time>
      </trkpt>
      <trkpt lat="47.24807" lon="4.92662">
        <ele>529.7</ele>
        <time>2016-02-16T13:52:18Z</time>
      </trkpt>
      <trkpt lat="47.24816" lon="4.92665">
        <ele>529.4</ele>
        <time>2016-02-16T13:52:27Z</time>
      </trkpt>
      <trkpt lat="47.24825" lon="4.92671">
        <ele>529.2</ele>
        <time>2016-02-16T13:52:36Z</time>
      </trkpt>
      <trkpt lat="47.24835" lon="4.92675">
        <ele>529</ele>
        <time>2016-02-16T13:52:43Z</time>
      </trkpt>
      <trkpt lat="47.24843" lon="4.92683">
        <ele>528.7</ele>
        <time>2016-02-16T13:52:52Z</time>
      </trkpt>
      <trkpt lat="47.24851" lon="4.92689">
        <ele>528.3</ele>
        <time>2016-02-16T13:53:02Z</time>
      </trkpt>
      <trkpt lat="47.24859" lon="4.92697">
        <ele>528.1</ele>
        <time>2016-02-16T13:53:10Z</time>
      </trkpt>
      <trkpt lat="47.24867" lon="4.92705">
        <ele>527.8</ele>
        <time>2016-02-16T13:53:18Z</time>
      </trkpt>
      <trkpt lat="47.24876" lon="4.92711">
        <ele>527.5</ele>
        <time>2016-02-16T13:53:26Z</time>
      </trkpt>
      <trkpt lat="47.24885" lon="4.92717">
        <ele>527.2</ele>
        <time>2016-02-16T13:53:33Z</time>
      </trkpt>
      <trkpt lat="47.24893" lon="4.92722">
        <ele>526.8</ele>
        <time>2016-02-16T13:53:40Z</time>
      </trkpt>
      <trkpt lat="47.24902" lon="4.92727">
        <ele>526.5</ele>
        <time>2016-02-16T13:53:48Z</time>
      </trkpt>
      <trkpt lat="47.24911" lon="4.92729">
        <ele>526.2</ele>
        <time>2016-02-16T13:53:58Z</time>
      </trkpt>
      <trkpt lat="47.2492" lon="4.92733">
        <ele>525.9</ele>
        <time>2016-02-16T13:54:06Z</time>
      </trkpt>
      <trkpt lat="47.24929" lon="4.92738">
        <ele>525.7</ele>
        <time>2016-02-16T13:54:13Z</time>
      </trkpt>
      <trkpt lat="47.24938" lon="4.92742">
        <ele>525.5</ele>
        <time>2016-02-16T13:54:20Z</time>
      </trkpt>
      <trkpt lat="47.24947" lon="4.92746">
        <ele>525.3</ele>
        <time>2016-02-16T13:54:27Z</time>
      </trkpt>
      <trkpt lat="47.24956" lon="4.92752">
        <ele>525.1</ele>
        <time>2016-02-16T13:54:34Z</time>
      </trkpt>
      <trkpt lat="47.24965" lon="4.92758">
        <ele>524.9</ele>
        <time>2016-02-16T13:54:41Z</time>
      </trkpt>
      <trkpt lat="47.24973" lon="4.92765">
        <ele>524.8</ele>
        <time>2016-02-16T13:54:52Z</time>
      </trkpt>
      <trkpt lat="47.24982" lon="4.92771">
        <ele>524.7</ele>
        <time>2016-02-16T13:55:00Z</time>
      </trkpt>
      <trkpt lat="47.2499" lon="4.9278">
        <ele>524.6</ele>
        <time>2016-02-16T13:55:08Z</time>
      </trkpt>
      <trkpt lat="47.24998" lon="4.92788">
        <ele>524.5</ele>
        <time>2016-02-16T13:55:17Z</time>
      </trkpt>
      <trkpt lat="47.25007" lon="4.92795">
        <ele>524.4</ele>
        <time>2016-02-16T13:55:27Z</time>
      </trkpt>
      <trkpt lat="47.25016" lon="4.92801">
        <ele>524.4</ele>
        <time>2016-02-16T13:55:34Z</time>
      </trkpt>
      <trkpt lat="47.25024" lon="4.9281">
        <ele>524.4</ele>
        <time>2016-02-16T13:55:41Z</time>
      </trkpt>
      <trkpt lat="47.25033" lon="4.92817">
        <ele>524.4</ele>
        <time>2016-02-16T13:55:49Z</time>
      </trkpt>
      <trkpt lat="47.25042" lon="4.92822">
        <ele>524.4</ele>
        <time>2016-02-16T13:55:58Z</time>
      </trkpt>
      <trkpt lat="47.25051" lon="4.92831">
        <ele>524.4</ele>
        <time>2016-02-16T13:56:06Z</time>
      </trkpt>
      <trkpt lat="47.25059" lon="4.92837">
        <ele>524.4</ele>
        <time>2016-02-16T13:56:13Z</time>
      </trkpt>
      <trkpt lat="47.25067" lon="4.92845">
        <ele>524.4</ele>
        <time>2016-02-16T13:56:20Z</time>
      </trkpt>
      <trkpt lat="47.25076" lon="4.92851">
        <ele>524.5</ele>
        <time>2016-02-16T13:56:26Z</time>
      </trkpt>
      <trkpt lat="47.25085" lon="4.92858">
        <ele>524.6</ele>
        <time>2016-02-16T13:56:33Z</time>
      </trkpt>
      <trkpt lat="47.25094" lon="4.92861">
        <ele>524.8</ele>
        <time>2016-02-16T13:56:42Z</time>
      </trkpt>
      <trkpt lat="47.25102" lon="4.92867">
        <ele>525.1</ele>
        <time>2016-02-16T13:56:50Z</time>
      </trkpt>
      <trkpt lat="47.2511" lon="4.92874">
        <ele>525.5</ele>
        <time>2016-02-16T13:56:57Z</time>
      </trkpt>
      <trkpt lat="47.2512" lon="4.92879">
        <ele>525.8</ele>
        <time>2016-02-16T13:57:04Z</time>
      </trkpt>
      <trkpt lat="47.25129" lon="4.92884">
        <ele>526.1</ele>
        <time>2016-02-16T13:57:11Z</time>
      </trkpt>
      <trkpt lat="47.25138" lon="4.92887">
        <ele>526.4</ele>
        <time>2016-02-16T13:57:19Z</time>
      </trkpt>
      <trkpt lat="47.25148" lon="4.92891">
        <ele>526.7</ele>
        <time>2016-02-16T13:57:27Z</time>
      </trkpt>
      <trkpt lat="47.25157" lon="4.92893">
        <ele>527</ele>
        <time>2016-02-16T13:57:34Z</time>
      </trkpt>
      <trkpt lat="47.25167" lon="4.92896">
        <ele>527.3</ele>
        <time>2016-02-16T13:57:41Z</time>
      </trkpt>
      <trkpt lat="47.25176" lon="4.92899">
        <ele>527.6</ele>
        <time>2016-02-16T13:57:49Z</time>
      </trkpt>
      <trkpt lat="47.25186" lon="4.92902">
        <ele>528</ele>
        <time>2016-02-16T13:57:59Z</time>
      </trkpt>
      <trkpt lat="47.25195" lon="4.92904">
        <ele>528.3</ele>
        <time>2016-02-16T13:58:06Z</time>
      </trkpt>
      <trkpt lat="47.25204" lon="4.92907">
        <ele>528.6</ele>
        <time>2016-02-16T13:58:13Z</time>
      </trkpt>
      <trkpt lat="47.25213" lon="4.92909">
        <ele>528.9</ele>
        <time>2016-02-16T13:58:20Z</time>
      </trkpt>
      <trkpt lat="47.25223" lon="4.92911">
        <ele>529.2</ele>
        <time>2016-02-16T13:58:29Z</time>
      </trkpt>
      <trkpt lat="47.25232" lon="4.92914">
        <ele>529.5</ele>
        <time>2016-02-16T13:58:37Z</time>
      </trkpt>
      <trkpt lat="47.25242" lon="4.92915">
        <ele>529.8</ele>
        <time>2016-02-16T13:58:45Z</time>
      </trkpt>
      <trkpt lat="47.25252" lon="4.92917">
        <ele>530</ele>
        <time>2016-02-16T13:58:53Z</time>
      </trkpt>
      <trkpt lat="47.25261" lon="4.92918">
        <ele>530.1</ele>
        <time>2016-02-16T13:59:02Z</time>
      </trkpt>
      <trkpt lat="47.25271" lon="4.92919">
        <ele>530.2</ele>
        <time>2016-02-16T13:59:10Z</time>
      </trkpt>
      <trkpt lat="47.25281" lon="4.92919">
        <ele>530.4</ele>
        <time>2016-02-16T13:59:19Z</time>
      </trkpt>
      <trkpt lat="47.2529" lon="4.9292">
        <ele>530.5</ele>
        <time>2016-02-16T13:59:27Z</time>
      </trkpt>
      <trkpt lat="47.253" lon="4.92922">
        <ele>530.6</ele>
        <time>2016-02-16T13:59:37Z</time>
      </trkpt>
      <trkpt lat="47.25311" lon="4.92923">
        <ele>530.7</ele>
        <time>2016-02-16T13:59:45Z</time>
      </trkpt>
      <trkpt lat="47.2532" lon="4.92925">
        <ele>530.8</ele>
        <time>2016-02-16T13:59:52Z</time>
      </trkpt>
      <trkpt lat="47.2533" lon="4.92927">
        <ele>530.8</ele>
        <time>2016-02-16T14:00:02Z</time>
      </trkpt>
      <trkpt lat="47.25339" lon="4.92929">
        <ele>531</ele>
        <time>2016-02-16T14:00:12Z</time>
      </trkpt>
      <trkpt lat="47.25347" lon="4.92932">
        <ele>531.1</ele>
        <time>2016-02-16T14:00:20Z</time>
      </trkpt>
      <trkpt lat="47.25357" lon="4.92934">
        <ele>531.3</ele>
        <time>2016-02-16T14:00:30Z</time>
      </trkpt>
      <trkpt lat="47.25367" lon="4.92935">
        <ele>531.4</ele>
        <time>2016-02-16T14:00:40Z</time>
      </trkpt>
      <trkpt lat="47.25376" lon="4.92933">
        <ele>531.6</ele>
        <time>2016-02-16T14:00:47Z</time>
      </trkpt>
      <trkpt lat="47.25386" lon="4.92935">
        <ele>531.8</ele>
        <time>2016-02-16T14:00:55Z</time>
      </trkpt>
      <trkpt lat="47.25395" lon="4.92937">
        <ele>531.9</ele>
        <time>2016-02-16T14:01:05Z</time>
      </trkpt>
      <trkpt lat="47.25404" lon="4.92939">
        <ele>532</ele>
        <time>2016-02-16T14:01:15Z</time>
      </trkpt>
      <trkpt lat="47.25414" lon="4.92939">
        <ele>532.2</ele>
        <time>2016-02-16T14:01:27Z</time>
      </trkpt>
      <trkpt lat="47.25422" lon="4.92931">
        <ele>532.5</ele>
        <time>2016-02-16T14:03:57Z</time>
      </trkpt>
      <trkpt lat="47.25424" lon="4.92918">
        <ele>533</ele>
        <time>2016-02-16T14:04:09Z</time>
      </trkpt>
      <trkpt lat="47.25427" lon="4.92905">
        <ele>533.3</ele>
        <time>2016-02-16T14:04:20Z</time>
      </trkpt>
      <trkpt lat="47.25431" lon="4.92893">
        <ele>533.6</ele>
        <time>2016-02-16T14:04:27Z</time>
      </trkpt>
      <trkpt lat="47.25435" lon="4.9288">
        <ele>533.9</ele>
        <time>2016-02-16T14:04:35Z</time>
      </trkpt>
      <trkpt lat="47.2544" lon="4.92869">
        <ele>534.2</ele>
        <time>2016-02-16T14:04:43Z</time>
      </trkpt>
      <trkpt lat="47.25444" lon="4.92856">
        <ele>534.5</ele>
        <time>2016-02-16T14:04:53Z</time>
      </trkpt>
      <trkpt lat="47.25448" lon="4.92844">
        <ele>534.7</ele>
        <time>2016-02-16T14:05:02Z</time>
      </trkpt>
      <trkpt lat="47.25449" lon="4.92831">
        <ele>535</ele>
        <time>2016-02-16T14:05:09Z</time>
      </trkpt>
      <trkpt lat="47.25451" lon="4.92818">
        <ele>535.1</ele>
        <time>2016-02-16T14:05:19Z</time>
      </trkpt>
      <trkpt lat="47.25453" lon="4.92804">
        <ele>535.2</ele>
        <time>2016-02-16T14:05:28Z</time>
      </trkpt>
      <trkpt lat="47.25455" lon="4.92791">
        <ele>535.2</ele>
        <time>2016-02-16T14:05:36Z</time>
      </trkpt>
      <trkpt lat="47.25455" lon="4.92777">
        <ele>535.3</ele>
        <time>2016-02-16T14:05:45Z</time>
      </trkpt>
      <trkpt lat="47.25458" lon="4.92763">
        <ele>535.4</ele>
        <time>2016-02-16T14:05:53Z</time>
      </trkpt>
      <trkpt lat="47.25462" lon="4.92749">
        <ele>535.6</ele>
        <time>2016-02-16T14:06:02Z</time>
      </trkpt>
      <trkpt lat="47.25464" lon="4.92737">
        <ele>535.9</ele>
        <time>2016-02-16T14:06:10Z</time>
      </trkpt>
      <trkpt lat="47.25467" lon="4.92722">
        <ele>536.3</ele>
        <time>2016-02-16T14:06:19Z</time>
      </trkpt>
      <trkpt lat="47.2547" lon="4.9271">
        <ele>536.6</ele>
        <time>2016-02-16T14:06:28Z</time>
      </trkpt>
      <trkpt lat="47.25472" lon="4.92695">
        <ele>537</ele>
        <time>2016-02-16T14:06:41Z</time>
      </trkpt>
      <trkpt lat="47.25476" lon="4.92681">
        <ele>537.4</ele>
        <time>2016-02-16T14:06:48Z</time>
      </trkpt>
      <trkpt lat="47.2548" lon="4.92669">
        <ele>537.7</ele>
        <time>2016-02-16T14:06:55Z</time>
      </trkpt>
      <trkpt lat="47.25481" lon="4.92656">
        <ele>537.8</ele>
        <time>2016-02-16T14:07:03Z</time>
      </trkpt>
      <trkpt lat="47.25484" lon="4.92642">
        <ele>537.9</ele>
        <time>2016-02-16T14:07:13Z</time>
      </trkpt>
      <trkpt lat="47.25488" lon="4.92629">
        <ele>538</ele>
        <time>2016-02-16T14:07:21Z</time>
      </trkpt>
      <trkpt lat="47.25489" lon="4.92615">
        <ele>538</ele>
        <time>2016-02-16T14:07:28Z</time>
      </trkpt>
      <trkpt lat="47.2549" lon="4.92602">
        <ele>538.1</ele>
        <time>2016-02-16T14:07:35Z</time>
      </trkpt>
      <trkpt lat="47.25491" lon="4.92587">
        <ele>538.1</ele>
        <time>2016-02-16T14:07:44Z</time>
      </trkpt>
      <trkpt lat="47.25492" lon="4.92573">
        <ele>538</ele>
        <time>2016-02-16T14:07:55Z</time>
      </trkpt>
      <trkpt lat="47.25493" lon="4.92559">
        <ele>537.8</ele>
        <time>2016-02-16T14:08:06Z</time>
      </trkpt>
      <trkpt lat="47.25493" lon="4.92543">
        <ele>537.7</ele>
        <time>2016-02-16T14:08:16Z</time>
      </trkpt>
      <trkpt lat="47.25493" lon="4.92529">
        <ele>537.5</ele>
        <time>2016-02-16T14:08:23Z</time>
      </trkpt>
      <trkpt lat="47.25491" lon="4.92515">
        <ele>537.5</ele>
        <time>2016-02-16T14:08:29Z</time>
      </trkpt>
      <trkpt lat="47.25491" lon="4.92502">
        <ele>537.3</ele>
        <time>2016-02-16T14:08:34Z</time>
      </trkpt>
      <trkpt lat="47.25492" lon="4.92488">
        <ele>536.9</ele>
        <time>2016-02-16T14:08:43Z</time>
      </trkpt>
      <trkpt lat="47.25492" lon="4.92475">
        <ele>536.4</ele>
        <time>2016-02-16T14:08:54Z</time>
      </trkpt>
      <trkpt lat="47.25491" lon="4.92459">
        <ele>535.9</ele>
        <time>2016-02-16T14:09:04Z</time>
      </trkpt>
      <trkpt lat="47.2549" lon="4.92446">
        <ele>535.5</ele>
        <time>2016-02-16T14:09:11Z</time>
      </trkpt>
      <trkpt lat="47.2549" lon="4.92432">
        <ele>535</ele>
        <time>2016-02-16T14:09:19Z</time>
      </trkpt>
      <trkpt lat="47.25489" lon="4.92417">
        <ele>534.5</ele>
        <time>2016-02-16T14:09:27Z</time>
      </trkpt>
      <trkpt lat="47.25489" lon="4.92403">
        <ele>533.9</ele>
        <time>2016-02-16T14:09:35Z</time>
      </trkpt>
      <trkpt lat="47.2549" lon="4.92386">
        <ele>533.1</ele>
        <time>2016-02-16T14:09:44Z</time>
      </trkpt>
      <trkpt lat="47.25489" lon="4.92371">
        <ele>532.5</ele>
        <time>2016-02-16T14:09:51Z</time>
      </trkpt>
      <trkpt lat="47.25488" lon="4.92358">
        <ele>531.9</ele>
        <time>2016-02-16T14:09:58Z</time>
      </trkpt>
      <trkpt lat="47.25487" lon="4.92344">
        <ele>531.4</ele>
        <time>2016-02-16T14:10:08Z</time>
      </trkpt>
      <trkpt lat="47.25485" lon="4.9233">
        <ele>531</ele>
        <time>2016-02-16T14:10:16Z</time>
      </trkpt>
      <trkpt lat="47.25487" lon="4.92317">
        <ele>530.3</ele>
        <time>2016-02-16T14:10:26Z</time>
      </trkpt>
      <trkpt lat="47.25487" lon="4.92302">
        <ele>529.8</ele>
        <time>2016-02-16T14:10:33Z</time>
      </trkpt>
      <trkpt lat="47.25486" lon="4.92289">
        <ele>529.4</ele>
        <time>2016-02-16T14:10:39Z</time>
      </trkpt>
      <trkpt lat="47.25485" lon="4.92275">
        <ele>529</ele>
        <time>2016-02-16T14:10:45Z</time>
      </trkpt>
      <trkpt lat="47.25484" lon="4.92262">
        <ele>528.6</ele>
        <time>2016-02-16T14:10:53Z</time>
      </trkpt>
      <trkpt lat="47.2548" lon="4.92249">
        <ele>528.4</ele>
        <time>2016-02-16T14:11:03Z</time>
      </trkpt>
      <trkpt lat="47.25476" lon="4.92237">
        <ele>528.4</ele>
        <time>2016-02-16T14:11:10Z</time>
      </trkpt>
      <trkpt lat="47.25471" lon="4.92225">
        <ele>528.5</ele>
        <time>2016-02-16T14:11:16Z</time>
      </trkpt>
      <trkpt lat="47.25466" lon="4.92214">
        <ele>528.6</ele>
        <time>2016-02-16T14:11:23Z</time>
      </trkpt>
      <trkpt lat="47.25461" lon="4.92201">
        <ele>528.8</ele>
        <time>2016-02-16T14:11:29Z</time>
      </trkpt>
      <trkpt lat="47.25456" lon="4.92188">
        <ele>529.1</ele>
        <time>2016-02-16T14:11:35Z</time>
      </trkpt>
      <trkpt lat="47.25451" lon="4.92176">
        <ele>529.4</ele>
        <time>2016-02-16T14:11:42Z</time>
      </trkpt>
      <trkpt lat="47.25447" lon="4.92164">
        <ele>529.6</ele>
        <time>2016-02-16T14:11:51Z</time>
      </trkpt>
      <trkpt lat="47.25443" lon="4.9215">
        <ele>529.6</ele>
        <time>2016-02-16T14:11:59Z</time>
      </trkpt>
      <trkpt lat="47.25438" lon="4.92138">
        <ele>529.6</ele>
        <time>2016-02-16T14:12:07Z</time>
      </trkpt>
      <trkpt lat="47.25433" lon="4.92125">
        <ele>529.8</ele>
        <time>2016-02-16T14:12:16Z</time>
      </trkpt>
      <trkpt lat="47.25427" lon="4.92113">
        <ele>529.9</ele>
        <time>2016-02-16T14:12:26Z</time>
      </trkpt>
      <trkpt lat="47.25424" lon="4.92101">
        <ele>529.8</ele>
        <time>2016-02-16T14:12:33Z</time>
      </trkpt>
      <trkpt lat="47.2542" lon="4.92088">
        <ele>529.8</ele>
        <time>2016-02-16T14:12:40Z</time>
      </trkpt>
      <trkpt lat="47.25417" lon="4.92075">
        <ele>529.7</ele>
        <time>2016-02-16T14:12:50Z</time>
      </trkpt>
      <trkpt lat="47.25413" lon="4.92062">
        <ele>529.3</ele>
        <time>2016-02-16T14:12:58Z</time>
      </trkpt>
      <trkpt lat="47.25411" lon="4.92047">
        <ele>528.9</ele>
        <time>2016-02-16T14:13:08Z</time>
      </trkpt>
      <trkpt lat="47.2541" lon="4.92033">
        <ele>528.5</ele>
        <time>2016-02-16T14:13:14Z</time>
      </trkpt>
      <trkpt lat="47.25409" lon="4.92018">
        <ele>528</ele>
        <time>2016-02-16T14:13:21Z</time>
      </trkpt>
      <trkpt lat="47.25411" lon="4.92004">
        <ele>527.4</ele>
        <time>2016-02-16T14:13:29Z</time>
      </trkpt>
      <trkpt lat="47.25413" lon="4.9199">
        <ele>526.9</ele>
        <time>2016-02-16T14:13:40Z</time>
      </trkpt>
      <trkpt lat="47.25414" lon="4.91976">
        <ele>526.5</ele>
        <time>2016-02-16T14:13:51Z</time>
      </trkpt>
      <trkpt lat="47.25415" lon="4.91963">
        <ele>526.2</ele>
        <time>2016-02-16T14:14:00Z</time>
      </trkpt>
      <trkpt lat="47.25414" lon="4.91948">
        <ele>525.8</ele>
        <time>2016-02-16T14:14:08Z</time>
      </trkpt>
      <trkpt lat="47.25414" lon="4.91934">
        <ele>525.5</ele>
        <time>2016-02-16T14:14:15Z</time>
      </trkpt>
      <trkpt lat="47.25415" lon="4.9192">
        <ele>525.1</ele>
        <time>2016-02-16T14:14:22Z</time>
      </trkpt>
      <trkpt lat="47.25417" lon="4.91906">
        <ele>524.6</ele>
        <time>2016-02-16T14:14:28Z</time>
      </trkpt>
      <trkpt lat="47.25417" lon="4.91893">
        <ele>524.1</ele>
        <time>2016-02-16T14:14:36Z</time>
      </trkpt>
      <trkpt lat="47.25421" lon="4.91881">
        <ele>523.3</ele>
        <time>2016-02-16T14:14:45Z</time>
      </trkpt>
      <trkpt lat="47.25423" lon="4.91866">
        <ele>522.6</ele>
        <time>2016-02-16T14:14:53Z</time>
      </trkpt>
      <trkpt lat="47.25424" lon="4.91853">
        <ele>522</ele>
        <time>2016-02-16T14:15:01Z</time>
      </trkpt>
      <trkpt lat="47.25425" lon="4.91837">
        <ele>521.4</ele>
        <time>2016-02-16T14:15:09Z</time>
      </trkpt>
      <trkpt lat="47.25427" lon="4.91824">
        <ele>520.9</ele>
        <time>2016-02-16T14:15:19Z</time>
      </trkpt>
      <trkpt lat="47.2543" lon="4.91812">
        <ele>520.4</ele>
        <time>2016-02-16T14:15:26Z</time>
      </trkpt>
      <trkpt lat="47.25433" lon="4.91796">
        <ele>519.9</ele>
        <time>2016-02-16T14:15:35Z</time>
      </trkpt>
      <trkpt lat="47.25435" lon="4.91783">
        <ele>519.5</ele>
        <time>2016-02-16T14:15:44Z</time>
      </trkpt>
      <trkpt lat="47.25438" lon="4.91769">
        <ele>519.1</ele>
        <time>2016-02-16T14:15:51Z</time>
      </trkpt>
      <trkpt lat="47.25441" lon="4.91756">
        <ele>518.6</ele>
        <time>2016-02-16T14:16:01Z</time>
      </trkpt>
      <trkpt lat="47.25446" lon="4.91744">
        <ele>518</ele>
        <time>2016-02-16T14:16:10Z</time>
      </trkpt>
      <trkpt lat="47.25451" lon="4.9173">
        <ele>517.2</ele>
        <time>2016-02-16T14:16:18Z</time>
      </trkpt>
      <trkpt lat="47.25457" lon="4.91718">
        <ele>516.4</ele>
        <time>2016-02-16T14:16:25Z</time>
      </trkpt>
      <trkpt lat="47.2546" lon="4.91704">
        <ele>515.8</ele>
        <time>2016-02-16T14:16:33Z</time>
      </trkpt>
      <trkpt lat="47.25465" lon="4.91691">
        <ele>515.1</ele>
        <time>2016-02-16T14:16:41Z</time>
      </trkpt>
      <trkpt lat="47.25468" lon="4.91676">
        <ele>514.4</ele>
        <time>2016-02-16T14:16:49Z</time>
      </trkpt>
      <trkpt lat="47.2547" lon="4.91662">
        <ele>513.8</ele>
        <time>2016-02-16T14:17:05Z</time>
      </trkpt>
      <trkpt lat="47.25473" lon="4.91648">
        <ele>513.1</ele>
        <time>2016-02-16T14:17:15Z</time>
      </trkpt>
      <trkpt lat="47.25476" lon="4.91635">
        <ele>512.4</ele>
        <time>2016-02-16T14:17:27Z</time>
      </trkpt>
      <trkpt lat="47.25474" lon="4.9162">
        <ele>511.8</ele>
        <time>2016-02-16T14:17:35Z</time>
      </trkpt>
      <trkpt lat="47.25476" lon="4.91605">
        <ele>511.1</ele>
        <time>2016-02-16T14:17:45Z</time>
      </trkpt>
      <trkpt lat="47.25476" lon="4.91592">
        <ele>510.5</ele>
        <time>2016-02-16T14:17:53Z</time>
      </trkpt>
      <trkpt lat="47.25475" lon="4.91578">
        <ele>510.2</ele>
        <time>2016-02-16T14:17:59Z</time>
      </trkpt>
      <trkpt lat="47.25473" lon="4.91565">
        <ele>510.1</ele>
        <time>2016-02-16T14:18:06Z</time>
      </trkpt>
      <trkpt lat="47.25473" lon="4.91551">
        <ele>510</ele>
        <time>2016-02-16T14:18:12Z</time>
      </trkpt>
      <trkpt lat="47.25472" lon="4.91536">
        <ele>510</ele>
        <time>2016-02-16T14:18:19Z</time>
      </trkpt>
      <trkpt lat="47.25472" lon="4.91523">
        <ele>509.9</ele>
        <time>2016-02-16T14:18:24Z</time>
      </trkpt>
      <trkpt lat="47.25471" lon="4.91507">
        <ele>509.7</ele>
        <time>2016-02-16T14:18:30Z</time>
      </trkpt>
      <trkpt lat="47.25469" lon="4.91493">
        <ele>509.6</ele>
        <time>2016-02-16T14:18:37Z</time>
      </trkpt>
      <trkpt lat="47.25471" lon="4.91479">
        <ele>509.4</ele>
        <time>2016-02-16T14:18:45Z</time>
      </trkpt>
      <trkpt lat="47.25469" lon="4.91465">
        <ele>509.2</ele>
        <time>2016-02-16T14:18:54Z</time>
      </trkpt>
      <trkpt lat="47.25467" lon="4.91451">
        <ele>509</ele>
        <time>2016-02-16T14:19:01Z</time>
      </trkpt>
      <trkpt lat="47.25467" lon="4.91437">
        <ele>508.7</ele>
        <time>2016-02-16T14:19:10Z</time>
      </trkpt>
      <trkpt lat="47.25466" lon="4.91422">
        <ele>508.5</ele>
        <time>2016-02-16T14:19:22Z</time>
      </trkpt>
      <trkpt lat="47.25468" lon="4.91408">
        <ele>508</ele>
        <time>2016-02-16T14:19:29Z</time>
      </trkpt>
      <trkpt lat="47.2547" lon="4.91395">
        <ele>507.5</ele>
        <time>2016-02-16T14:19:36Z</time>
      </trkpt>
      <trkpt lat="47.25473" lon="4.91381">
        <ele>506.9</ele>
        <time>2016-02-16T14:19:46Z</time>
      </trkpt>
      <trkpt lat="47.25476" lon="4.91367">
        <ele>506.3</ele>
        <time>2016-02-16T14:19:57Z</time>
      </trkpt>
      <trkpt lat="47.25479" lon="4.91354">
        <ele>505.8</ele>
        <time>2016-02-16T14:20:06Z</time>
      </trkpt>
      <trkpt lat="47.25484" lon="4.91341">
        <ele>505.3</ele>
        <time>2016-02-16T14:20:16Z</time>
      </trkpt>
      <trkpt lat="47.2549" lon="4.91329">
        <ele>504.9</ele>
        <time>2016-02-16T14:20:26Z</time>
      </trkpt>
      <trkpt lat="47.25494" lon="4.91317">
        <ele>504.6</ele>
        <time>2016-02-16T14:20:34Z</time>
      </trkpt>
      <trkpt lat="47.25498" lon="4.91303">
        <ele>504.3</ele>
        <time>2016-02-16T14:20:42Z</time>
      </trkpt>
      <trkpt lat="47.25504" lon="4.91291">
        <ele>503.8</ele>
        <time>2016-02-16T14:20:48Z</time>
      </trkpt>
      <trkpt lat="47.25507" lon="4.91278">
        <ele>503.3</ele>
        <time>2016-02-16T14:20:54Z</time>
      </trkpt>
      <trkpt lat="47.25512" lon="4.91265">
        <ele>502.8</ele>
        <time>2016-02-16T14:21:01Z</time>
      </trkpt>
      <trkpt lat="47.25517" lon="4.91253">
        <ele>502.2</ele>
        <time>2016-02-16T14:21:10Z</time>
      </trkpt>
      <trkpt lat="47.2552" lon="4.91239">
        <ele>501.9</ele>
        <time>2016-02-16T14:21:17Z</time>
      </trkpt>
      <trkpt lat="47.25522" lon="4.91225">
        <ele>501.6</ele>
        <time>2016-02-16T14:21:23Z</time>
      </trkpt>
      <trkpt lat="47.25524" lon="4.91209">
        <ele>501.4</ele>
        <time>2016-02-16T14:21:28Z</time>
      </trkpt>
      <trkpt lat="47.25526" lon="4.91195">
        <ele>501.1</ele>
        <time>2016-02-16T14:21:33Z</time>
      </trkpt>
      <trkpt lat="47.25529" lon="4.91182">
        <ele>500.8</ele>
        <time>2016-02-16T14:21:39Z</time>
      </trkpt>
      <trkpt lat="47.25532" lon="4.91167">
        <ele>500.5</ele>
        <time>2016-02-16T14:21:45Z</time>
      </trkpt>
      <trkpt lat="47.25534" lon="4.91154">
        <ele>500.4</ele>
        <time>2016-02-16T14:21:52Z</time>
      </trkpt>
      <trkpt lat="47.25539" lon="4.91141">
        <ele>500.3</ele>
        <time>2016-02-16T14:21:59Z</time>
      </trkpt>
      <trkpt lat="47.25542" lon="4.91127">
        <ele>500.2</ele>
        <time>2016-02-16T14:22:06Z</time>
      </trkpt>
      <trkpt lat="47.25546" lon="4.91114">
        <ele>500.1</ele>
        <time>2016-02-16T14:22:14Z</time>
      </trkpt>
      <trkpt lat="47.25549" lon="4.911">
        <ele>499.9</ele>
        <time>2016-02-16T14:22:22Z</time>
      </trkpt>
      <trkpt lat="47.25552" lon="4.91086">
        <ele>499.8</ele>
        <time>2016-02-16T14:22:30Z</time>
      </trkpt>
      <trkpt lat="47.25555" lon="4.91072">
        <ele>499.9</ele>
        <time>2016-02-16T14:22:38Z</time>
      </trkpt>
      <trkpt lat="47.25558" lon="4.91059">
        <ele>499.9</ele>
        <time>2016-02-16T14:22:46Z</time>
      </trkpt>
      <trkpt lat="47.25562" lon="4.91045">
        <ele>500</ele>
        <time>2016-02-16T14:22:54Z</time>
      </trkpt>
      <trkpt lat="47.25564" lon="4.91032">
        <ele>500.1</ele>
        <time>2016-02-16T14:23:04Z</time>
      </trkpt>
      <trkpt lat="47.25567" lon="4.91019">
        <ele>500.2</ele>
        <time>2016-02-16T14:23:17Z</time>
      </trkpt>
      <trkpt lat="47.2557" lon="4.91006">
        <ele>500.4</ele>
        <time>2016-02-16T14:23:25Z</time>
      </trkpt>
      <trkpt lat="47.25572" lon="4.90993">
        <ele>500.4</ele>
        <time>2016-02-16T14:23:33Z</time>
      </trkpt>
      <trkpt lat="47.25573" lon="4.90978">
        <ele>500.4</ele>
        <time>2016-02-16T14:23:42Z</time>
      </trkpt>
      <trkpt lat="47.25577" lon="4.90965">
        <ele>500.2</ele>
        <time>2016-02-16T14:23:51Z</time>
      </trkpt>
      <trkpt lat="47.2558" lon="4.90952">
        <ele>500.1</ele>
        <time>2016-02-16T14:24:01Z</time>
      </trkpt>
      <trkpt lat="47.25583" lon="4.90939">
        <ele>500</ele>
        <time>2016-02-16T14:24:10Z</time>
      </trkpt>
      <trkpt lat="47.25586" lon="4.90926">
        <ele>499.7</ele>
        <time>2016-02-16T14:24:18Z</time>
      </trkpt>
      <trkpt lat="47.2559" lon="4.90912">
        <ele>499.5</ele>
        <time>2016-02-16T14:24:27Z</time>
      </trkpt>
      <trkpt lat="47.25595" lon="4.909">
        <ele>499.4</ele>
        <time>2016-02-16T14:24:38Z</time>
      </trkpt>
      <trkpt lat="47.25595" lon="4.90886">
        <ele>499.8</ele>
        <time>2016-02-16T14:24:46Z</time>
      </trkpt>
      <trkpt lat="47.25595" lon="4.90873">
        <ele>500.2</ele>
        <time>2016-02-16T14:25:41Z</time>
      </trkpt>
      <trkpt lat="47.25598" lon="4.9086">
        <ele>500.5</ele>
        <time>2016-02-16T14:26:47Z</time>
      </trkpt>
      <trkpt lat="47.25602" lon="4.90848">
        <ele>500.6</ele>
        <time>2016-02-16T14:29:24Z</time>
      </trkpt>
      <trkpt lat="47.25602" lon="4.90834">
        <ele>501.1</ele>
        <time>2016-02-16T14:31:09Z</time>
      </trkpt>
      <trkpt lat="47.25599" lon="4.90848">
        <ele>500.8</ele>
        <time>2016-02-16T14:40:39Z</time>
      </trkpt>
      <trkpt lat="47.25595" lon="4.9086">
        <ele>500.6</ele>
        <time>2016-02-16T14:40:48Z</time>
      </trkpt>
      <trkpt lat="47.25591" lon="4.90872">
        <ele>500.5</ele>
        <time>2016-02-16T14:40:58Z</time>
      </trkpt>
      <trkpt lat="47.25587" lon="4.90884">
        <ele>500.5</ele>
        <time>2016-02-16T14:41:07Z</time>
      </trkpt>
      <trkpt lat="47.25583" lon="4.90897">
        <ele>500.5</ele>
        <time>2016-02-16T14:41:17Z</time>
      </trkpt>
      <trkpt lat="47.25582" lon="4.90911">
        <ele>500.2</ele>
        <time>2016-02-16T14:41:26Z</time>
      </trkpt>
      <trkpt lat="47.25579" lon="4.90925">
        <ele>500.1</ele>
        <time>2016-02-16T14:41:35Z</time>
      </trkpt>
      <trkpt lat="47.25576" lon="4.90939">
        <ele>500.3</ele>
        <time>2016-02-16T14:41:44Z</time>
      </trkpt>
      <trkpt lat="47.25572" lon="4.90952">
        <ele>500.4</ele>
        <time>2016-02-16T14:41:51Z</time>
      </trkpt>
      <trkpt lat="47.25569" lon="4.90966">
        <ele>500.5</ele>
        <time>2016-02-16T14:41:58Z</time>
      </trkpt>
      <trkpt lat="47.25566" lon="4.9098">
        <ele>500.6</ele>
        <time>2016-02-16T14:42:07Z</time>
      </trkpt>
      <trkpt lat="47.25563" lon="4.90992">
        <ele>500.7</ele>
        <time>2016-02-16T14:42:16Z</time>
      </trkpt>
      <trkpt lat="47.25559" lon="4.91005">
        <ele>500.8</ele>
        <time>2016-02-16T14:42:23Z</time>
      </trkpt>
      <trkpt lat="47.25555" lon="4.91017">
        <ele>500.8</ele>
        <time>2016-02-16T14:42:30Z</time>
      </trkpt>
      <trkpt lat="47.25552" lon="4.9103">
        <ele>500.7</ele>
        <time>2016-02-16T14:42:38Z</time>
      </trkpt>
      <trkpt lat="47.25548" lon="4.91043">
        <ele>500.7</ele>
        <time>2016-02-16T14:42:46Z</time>
      </trkpt>
      <trkpt lat="47.25544" lon="4.91056">
        <ele>500.7</ele>
        <time>2016-02-16T14:42:54Z</time>
      </trkpt>
      <trkpt lat="47.25541" lon="4.9107">
        <ele>500.7</ele>
        <time>2016-02-16T14:43:03Z</time>
      </trkpt>
      <trkpt lat="47.25541" lon="4.91083">
        <ele>500.6</ele>
        <time>2016-02-16T14:43:12Z</time>
      </trkpt>
      <trkpt lat="47.25537" lon="4.91097">
        <ele>500.7</ele>
        <time>2016-02-16T14:43:20Z</time>
      </trkpt>
      <trkpt lat="47.25534" lon="4.9111">
        <ele>500.8</ele>
        <time>2016-02-16T14:43:29Z</time>
      </trkpt>
      <trkpt lat="47.25531" lon="4.91124">
        <ele>500.8</ele>
        <time>2016-02-16T14:43:37Z</time>
      </trkpt>
      <trkpt lat="47.25531" lon="4.91138">
        <ele>500.7</ele>
        <time>2016-02-16T14:43:46Z</time>
      </trkpt>
      <trkpt lat="47.25528" lon="4.9115">
        <ele>500.8</ele>
        <time>2016-02-16T14:43:57Z</time>
      </trkpt>
      <trkpt lat="47.25526" lon="4.91165">
        <ele>500.8</ele>
        <time>2016-02-16T14:44:05Z</time>
      </trkpt>
      <trkpt lat="47.25524" lon="4.91178">
        <ele>501</ele>
        <time>2016-02-16T14:44:15Z</time>
      </trkpt>
      <trkpt lat="47.25519" lon="4.9119">
        <ele>501.4</ele>
        <time>2016-02-16T14:44:23Z</time>
      </trkpt>
      <trkpt lat="47.25514" lon="4.91202">
        <ele>501.7</ele>
        <time>2016-02-16T14:44:34Z</time>
      </trkpt>
      <trkpt lat="47.25512" lon="4.91216">
        <ele>502</ele>
        <time>2016-02-16T14:44:44Z</time>
      </trkpt>
      <trkpt lat="47.25508" lon="4.9123">
        <ele>502.4</ele>
        <time>2016-02-16T14:44:53Z</time>
      </trkpt>
      <trkpt lat="47.25504" lon="4.91242">
        <ele>502.7</ele>
        <time>2016-02-16T14:45:03Z</time>
      </trkpt>
      <trkpt lat="47.25499" lon="4.91253">
        <ele>503.1</ele>
        <time>2016-02-16T14:45:15Z</time>
      </trkpt>
      <trkpt lat="47.25495" lon="4.91266">
        <ele>503.4</ele>
        <time>2016-02-16T14:45:24Z</time>
      </trkpt>
      <trkpt lat="47.25492" lon="4.91278">
        <ele>503.7</ele>
        <time>2016-02-16T14:45:36Z</time>
      </trkpt>
      <trkpt lat="47.25488" lon="4.91293">
        <ele>504</ele>
        <time>2016-02-16T14:45:46Z</time>
      </trkpt>
      <trkpt lat="47.25484" lon="4.91306">
        <ele>504.3</ele>
        <time>2016-02-16T14:45:57Z</time>
      </trkpt>
      <trkpt lat="47.25482" lon="4.91318">
        <ele>504.6</ele>
        <time>2016-02-16T14:46:06Z</time>
      </trkpt>
      <trkpt lat="47.25481" lon="4.91333">
        <ele>505</ele>
        <time>2016-02-16T14:46:15Z</time>
      </trkpt>
      <trkpt lat="47.25475" lon="4.91342">
        <ele>505.3</ele>
        <time>2016-02-16T14:46:24Z</time>
      </trkpt>
      <trkpt lat="47.25466" lon="4.91351">
        <ele>505.7</ele>
        <time>2016-02-16T14:46:30Z</time>
      </trkpt>
      <trkpt lat="47.25457" lon="4.91356">
        <ele>505.9</ele>
        <time>2016-02-16T14:46:41Z</time>
      </trkpt>
      <trkpt lat="47.25448" lon="4.91353">
        <ele>505.8</ele>
        <time>2016-02-16T14:46:50Z</time>
      </trkpt>
      <trkpt lat="47.25438" lon="4.9135">
        <ele>505.7</ele>
        <time>2016-02-16T14:47:01Z</time>
      </trkpt>
      <trkpt lat="47.2543" lon="4.91346">
        <ele>505.6</ele>
        <time>2016-02-16T14:47:08Z</time>
      </trkpt>
      <trkpt lat="47.25421" lon="4.91341">
        <ele>505.4</ele>
        <time>2016-02-16T14:47:17Z</time>
      </trkpt>
      <trkpt lat="47.25413" lon="4.91333">
        <ele>504.7</ele>
        <time>2016-02-16T14:47:27Z</time>
      </trkpt>
      <trkpt lat="47.25404" lon="4.91325">
        <ele>504.1</ele>
        <time>2016-02-16T14:47:36Z</time>
      </trkpt>
      <trkpt lat="47.25397" lon="4.91318">
        <ele>503.5</ele>
        <time>2016-02-16T14:47:45Z</time>
      </trkpt>
      <trkpt lat="47.25389" lon="4.91309">
        <ele>502.9</ele>
        <time>2016-02-16T14:47:55Z</time>
      </trkpt>
      <trkpt lat="47.25382" lon="4.913">
        <ele>502.3</ele>
        <time>2016-02-16T14:48:04Z</time>
      </trkpt>
      <trkpt lat="47.25374" lon="4.91292">
        <ele>501.7</ele>
        <time>2016-02-16T14:48:15Z</time>
      </trkpt>
      <trkpt lat="47.25372" lon="4.91279">
        <ele>501.3</ele>
        <time>2016-02-16T14:48:24Z</time>
      </trkpt>
      <trkpt lat="47.25366" lon="4.91267">
        <ele>500.9</ele>
        <time>2016-02-16T14:48:34Z</time>
      </trkpt>
      <trkpt lat="47.25359" lon="4.91257">
        <ele>500.4</ele>
        <time>2016-02-16T14:48:44Z</time>
      </trkpt>
      <trkpt lat="47.25353" lon="4.91246">
        <ele>499.9</ele>
        <time>2016-02-16T14:48:53Z</time>
      </trkpt>
      <trkpt lat="47.25348" lon="4.91235">
        <ele>499.5</ele>
        <time>2016-02-16T14:49:03Z</time>
      </trkpt>
      <trkpt lat="47.25343" lon="4.91224">
        <ele>499.1</ele>
        <time>2016-02-16T14:49:13Z</time>
      </trkpt>
      <trkpt lat="47.25335" lon="4.91216">
        <ele>498.7</ele>
        <time>2016-02-16T14:49:25Z</time>
      </trkpt>
      <trkpt lat="47.25333" lon="4.91202">
        <ele>498.3</ele>
        <time>2016-02-16T14:49:33Z</time>
      </trkpt>
      <trkpt lat="47.25333" lon="4.91189">
        <ele>498.2</ele>
        <time>2016-02-16T14:49:43Z</time>
      </trkpt>
      <trkpt lat="47.25334" lon="4.91175">
        <ele>498.1</ele>
        <time>2016-02-16T14:49:54Z</time>
      </trkpt>
      <trkpt lat="47.25336" lon="4.91162">
        <ele>497.9</ele>
        <time>2016-02-16T14:50:04Z</time>
      </trkpt>
      <trkpt lat="47.2534" lon="4.9115">
        <ele>497.7</ele>
        <time>2016-02-16T14:50:17Z</time>
      </trkpt>
      <trkpt lat="47.25341" lon="4.91137">
        <ele>497.4</ele>
        <time>2016-02-16T14:50:24Z</time>
      </trkpt>
      <trkpt lat="47.25346" lon="4.91124">
        <ele>497.2</ele>
        <time>2016-02-16T14:50:38Z</time>
      </trkpt>
      <trkpt lat="47.25343" lon="4.9111">
        <ele>496.5</ele>
        <time>2016-02-16T14:50:50Z</time>
      </trkpt>
      <trkpt lat="47.25337" lon="4.91099">
        <ele>495.8</ele>
        <time>2016-02-16T14:50:57Z</time>
      </trkpt>
      <trkpt lat="47.2533" lon="4.9109">
        <ele>494.7</ele>
        <time>2016-02-16T14:51:05Z</time>
      </trkpt>
      <trkpt lat="47.25322" lon="4.91081">
        <ele>493.4</ele>
        <time>2016-02-16T14:51:14Z</time>
      </trkpt>
      <trkpt lat="47.25315" lon="4.91073">
        <ele>492.5</ele>
        <time>2016-02-16T14:51:26Z</time>
      </trkpt>
      <trkpt lat="47.25307" lon="4.91065">
        <ele>491.6</ele>
        <time>2016-02-16T14:51:35Z</time>
      </trkpt>
      <trkpt lat="47.25298" lon="4.91062">
        <ele>490.5</ele>
        <time>2016-02-16T14:51:44Z</time>
      </trkpt>
      <trkpt lat="47.25291" lon="4.91053">
        <ele>489.8</ele>
        <time>2016-02-16T14:51:56Z</time>
      </trkpt>
      <trkpt lat="47.25282" lon="4.9105">
        <ele>488.9</ele>
        <time>2016-02-16T14:52:12Z</time>
      </trkpt>
      <trkpt lat="47.25274" lon="4.91046">
        <ele>488</ele>
        <time>2016-02-16T14:52:28Z</time>
      </trkpt>
      <trkpt lat="47.25264" lon="4.91044">
        <ele>487</ele>
        <time>2016-02-16T14:52:52Z</time>
      </trkpt>
      <trkpt lat="47.25255" lon="4.91042">
        <ele>486.1</ele>
        <time>2016-02-16T14:53:08Z</time>
      </trkpt>
      <trkpt lat="47.25246" lon="4.91042">
        <ele>484.8</ele>
        <time>2016-02-16T14:53:24Z</time>
      </trkpt>
      <trkpt lat="47.25236" lon="4.91045">
        <ele>483.2</ele>
        <time>2016-02-16T14:53:34Z</time>
      </trkpt>
      <trkpt lat="47.25227" lon="4.91045">
        <ele>481.6</ele>
        <time>2016-02-16T14:53:47Z</time>
      </trkpt>
      <trkpt lat="47.25217" lon="4.91046">
        <ele>480.2</ele>
        <time>2016-02-16T14:54:09Z</time>
      </trkpt>
      <trkpt lat="47.25211" lon="4.91059">
        <ele>478.4</ele>
        <time>2016-02-16T14:54:25Z</time>
      </trkpt>
      <trkpt lat="47.25206" lon="4.9107">
        <ele>476.9</ele>
        <time>2016-02-16T14:54:40Z</time>
      </trkpt>
      <trkpt lat="47.25208" lon="4.91083">
        <ele>476.5</ele>
        <time>2016-02-16T14:54:58Z</time>
      </trkpt>
      <trkpt lat="47.25209" lon="4.91097">
        <ele>476.8</ele>
        <time>2016-02-16T14:55:15Z</time>
      </trkpt>
      <trkpt lat="47.25206" lon="4.91109">
        <ele>476.6</ele>
        <time>2016-02-16T14:55:45Z</time>
      </trkpt>
      <trkpt lat="47.25197" lon="4.91109">
        <ele>475.1</ele>
        <time>2016-02-16T14:56:14Z</time>
      </trkpt>
      <trkpt lat="47.25188" lon="4.91107">
        <ele>473.6</ele>
        <time>2016-02-16T14:56:30Z</time>
      </trkpt>
      <trkpt lat="47.25179" lon="4.91105">
        <ele>472.2</ele>
        <time>2016-02-16T14:56:49Z</time>
      </trkpt>
      <trkpt lat="47.25169" lon="4.91104">
        <ele>470.6</ele>
        <time>2016-02-16T14:56:59Z</time>
      </trkpt>
      <trkpt lat="47.2516" lon="4.91098">
        <ele>470.1</ele>
        <time>2016-02-16T14:57:30Z</time>
      </trkpt>
      <trkpt lat="47.25151" lon="4.91094">
        <ele>470</ele>
        <time>2016-02-16T14:57:43Z</time>
      </trkpt>
      <trkpt lat="47.25144" lon="4.91086">
        <ele>469.8</ele>
        <time>2016-02-16T14:58:26Z</time>
      </trkpt>
      <trkpt lat="47.25135" lon="4.91084">
        <ele>469.6</ele>
        <time>2016-02-16T14:59:33Z</time>
      </trkpt>
      <trkpt lat="47.25126" lon="4.9108">
        <ele>469.5</ele>
        <time>2016-02-16T15:01:02Z</time>
      </trkpt>
      <trkpt lat="47.25117" lon="4.91075">
        <ele>469.3</ele>
        <time>2016-02-16T15:01:21Z</time>
      </trkpt>
      <trkpt lat="47.25108" lon="4.91072">
        <ele>469</ele>
        <time>2016-02-16T15:01:31Z</time>
      </trkpt>
      <trkpt lat="47.25099" lon="4.9107">
        <ele>468.6</ele>
        <time>2016-02-16T15:01:45Z</time>
      </trkpt>
      <trkpt lat="47.25089" lon="4.91069">
        <ele>468.3</ele>
        <time>2016-02-16T15:01:55Z</time>
      </trkpt>
      <trkpt lat="47.2508" lon="4.91067">
        <ele>468.3</ele>
        <time>2016-02-16T15:02:10Z</time>
      </trkpt>
      <trkpt lat="47.2507" lon="4.91063">
        <ele>469.2</ele>
        <time>2016-02-16T15:02:21Z</time>
      </trkpt>
      <trkpt lat="47.25061" lon="4.9106">
        <ele>470.1</ele>
        <time>2016-02-16T15:02:31Z</time>
      </trkpt>
      <trkpt lat="47.25052" lon="4.91059">
        <ele>471</ele>
        <time>2016-02-16T15:02:41Z</time>
      </trkpt>
      <trkpt lat="47.25042" lon="4.91054">
        <ele>471.8</ele>
        <time>2016-02-16T15:02:54Z</time>
      </trkpt>
      <trkpt lat="47.25035" lon="4.91045">
        <ele>472.2</ele>
        <time>2016-02-16T15:03:03Z</time>
      </trkpt>
      <trkpt lat="47.25027" lon="4.91037">
        <ele>472.7</ele>
        <time>2016-02-16T15:03:14Z</time>
      </trkpt>
      <trkpt lat="47.25018" lon="4.9103">
        <ele>473.3</ele>
        <time>2016-02-16T15:03:23Z</time>
      </trkpt>
      <trkpt lat="47.25009" lon="4.91025">
        <ele>474.1</ele>
        <time>2016-02-16T15:03:33Z</time>
      </trkpt>
      <trkpt lat="47.25" lon="4.91021">
        <ele>474.9</ele>
        <time>2016-02-16T15:03:40Z</time>
      </trkpt>
      <trkpt lat="47.24991" lon="4.91018">
        <ele>475.3</ele>
        <time>2016-02-16T15:03:48Z</time>
      </trkpt>
      <trkpt lat="47.24982" lon="4.91016">
        <ele>475.9</ele>
        <time>2016-02-16T15:03:59Z</time>
      </trkpt>
      <trkpt lat="47.24972" lon="4.91015">
        <ele>476.4</ele>
        <time>2016-02-16T15:04:10Z</time>
      </trkpt>
      <trkpt lat="47.24963" lon="4.91021">
        <ele>477.2</ele>
        <time>2016-02-16T15:04:20Z</time>
      </trkpt>
      <trkpt lat="47.24954" lon="4.91025">
        <ele>478.1</ele>
        <time>2016-02-16T15:04:33Z</time>
      </trkpt>
      <trkpt lat="47.24945" lon="4.91031">
        <ele>479</ele>
        <time>2016-02-16T15:04:45Z</time>
      </trkpt>
      <trkpt lat="47.24936" lon="4.91037">
        <ele>479.9</ele>
        <time>2016-02-16T15:04:54Z</time>
      </trkpt>
      <trkpt lat="47.24928" lon="4.91042">
        <ele>480.7</ele>
        <time>2016-02-16T15:05:04Z</time>
      </trkpt>
      <trkpt lat="47.24919" lon="4.91049">
        <ele>481.7</ele>
        <time>2016-02-16T15:05:18Z</time>
      </trkpt>
      <trkpt lat="47.2491" lon="4.91052">
        <ele>482.5</ele>
        <time>2016-02-16T15:05:28Z</time>
      </trkpt>
      <trkpt lat="47.24901" lon="4.91054">
        <ele>483.1</ele>
        <time>2016-02-16T15:05:37Z</time>
      </trkpt>
      <trkpt lat="47.24892" lon="4.91055">
        <ele>483.7</ele>
        <time>2016-02-16T15:05:56Z</time>
      </trkpt>
      <trkpt lat="47.24883" lon="4.91057">
        <ele>484.3</ele>
        <time>2016-02-16T15:06:30Z</time>
      </trkpt>
      <trkpt lat="47.24874" lon="4.91057">
        <ele>484.8</ele>
        <time>2016-02-16T15:07:02Z</time>
      </trkpt>
      <trkpt lat="47.24865" lon="4.9105">
        <ele>485.1</ele>
        <time>2016-02-16T15:07:33Z</time>
      </trkpt>
      <trkpt lat="47.24858" lon="4.91041">
        <ele>485.3</ele>
        <time>2016-02-16T15:07:51Z</time>
      </trkpt>
      <trkpt lat="47.24849" lon="4.91036">
        <ele>485.9</ele>
        <time>2016-02-16T15:08:06Z</time>
      </trkpt>
      <trkpt lat="47.24841" lon="4.91041">
        <ele>486.5</ele>
        <time>2016-02-16T15:08:19Z</time>
      </trkpt>
      <trkpt lat="47.24832" lon="4.91042">
        <ele>487.2</ele>
        <time>2016-02-16T15:08:31Z</time>
      </trkpt>
      <trkpt lat="47.24822" lon="4.9104">
        <ele>488.2</ele>
        <time>2016-02-16T15:10:37Z</time>
      </trkpt>
      <trkpt lat="47.24818" lon="4.91028">
        <ele>488.5</ele>
        <time>2016-02-16T15:10:48Z</time>
      </trkpt>
      <trkpt lat="47.24813" lon="4.91016">
        <ele>488.9</ele>
        <time>2016-02-16T15:10:57Z</time>
      </trkpt>
      <trkpt lat="47.24808" lon="4.91005">
        <ele>489.2</ele>
        <time>2016-02-16T15:11:05Z</time>
      </trkpt>
      <trkpt lat="47.24802" lon="4.90994">
        <ele>489.3</ele>
        <time>2016-02-16T15:11:13Z</time>
      </trkpt>
      <trkpt lat="47.24796" lon="4.90984">
        <ele>489.3</ele>
        <time>2016-02-16T15:11:21Z</time>
      </trkpt>
      <trkpt lat="47.24789" lon="4.90974">
        <ele>489.5</ele>
        <time>2016-02-16T15:11:29Z</time>
      </trkpt>
      <trkpt lat="47.24783" lon="4.90965">
        <ele>489.8</ele>
        <time>2016-02-16T15:11:37Z</time>
      </trkpt>
      <trkpt lat="47.24776" lon="4.90955">
        <ele>490.1</ele>
        <time>2016-02-16T15:11:45Z</time>
      </trkpt>
      <trkpt lat="47.24768" lon="4.90948">
        <ele>490.7</ele>
        <time>2016-02-16T15:11:53Z</time>
      </trkpt>
      <trkpt lat="47.2476" lon="4.9094">
        <ele>491.3</ele>
        <time>2016-02-16T15:12:01Z</time>
      </trkpt>
      <trkpt lat="47.24752" lon="4.90931">
        <ele>492.1</ele>
        <time>2016-02-16T15:12:10Z</time>
      </trkpt>
      <trkpt lat="47.24744" lon="4.90923">
        <ele>491.9</ele>
        <time>2016-02-16T15:12:19Z</time>
      </trkpt>
      <trkpt lat="47.24737" lon="4.90914">
        <ele>491.3</ele>
        <time>2016-02-16T15:12:27Z</time>
      </trkpt>
      <trkpt lat="47.2473" lon="4.90905">
        <ele>490.5</ele>
        <time>2016-02-16T15:12:36Z</time>
      </trkpt>
      <trkpt lat="47.24722" lon="4.90896">
        <ele>489.6</ele>
        <time>2016-02-16T15:12:46Z</time>
      </trkpt>
      <trkpt lat="47.24716" lon="4.90886">
        <ele>488.7</ele>
        <time>2016-02-16T15:12:55Z</time>
      </trkpt>
      <trkpt lat="47.24709" lon="4.90875">
        <ele>487.8</ele>
        <time>2016-02-16T15:13:04Z</time>
      </trkpt>
      <trkpt lat="47.24704" lon="4.90865">
        <ele>486.9</ele>
        <time>2016-02-16T15:13:12Z</time>
      </trkpt>
      <trkpt lat="47.24697" lon="4.90854">
        <ele>486.1</ele>
        <time>2016-02-16T15:13:21Z</time>
      </trkpt>
      <trkpt lat="47.24692" lon="4.90844">
        <ele>485.2</ele>
        <time>2016-02-16T15:13:30Z</time>
      </trkpt>
      <trkpt lat="47.24686" lon="4.90833">
        <ele>484.4</ele>
        <time>2016-02-16T15:13:39Z</time>
      </trkpt>
      <trkpt lat="47.2468" lon="4.90822">
        <ele>483.4</ele>
        <time>2016-02-16T15:13:48Z</time>
      </trkpt>
      <trkpt lat="47.24673" lon="4.90811">
        <ele>482.5</ele>
        <time>2016-02-16T15:13:56Z</time>
      </trkpt>
      <trkpt lat="47.24667" lon="4.90801">
        <ele>481.7</ele>
        <time>2016-02-16T15:14:04Z</time>
      </trkpt>
      <trkpt lat="47.24661" lon="4.90791">
        <ele>480.9</ele>
        <time>2016-02-16T15:14:12Z</time>
      </trkpt>
      <trkpt lat="47.24655" lon="4.90781">
        <ele>480.2</ele>
        <time>2016-02-16T15:14:20Z</time>
      </trkpt>
      <trkpt lat="47.24648" lon="4.90771">
        <ele>479.6</ele>
        <time>2016-02-16T15:14:28Z</time>
      </trkpt>
      <trkpt lat="47.2464" lon="4.90762">
        <ele>479.1</ele>
        <time>2016-02-16T15:14:37Z</time>
      </trkpt>
      <trkpt lat="47.24632" lon="4.90755">
        <ele>478.7</ele>
        <time>2016-02-16T15:14:47Z</time>
      </trkpt>
      <trkpt lat="47.24624" lon="4.90749">
        <ele>478.5</ele>
        <time>2016-02-16T15:14:56Z</time>
      </trkpt>
      <trkpt lat="47.24615" lon="4.90743">
        <ele>478.2</ele>
        <time>2016-02-16T15:15:06Z</time>
      </trkpt>
      <trkpt lat="47.24607" lon="4.90738">
        <ele>478</ele>
        <time>2016-02-16T15:15:15Z</time>
      </trkpt>
      <trkpt lat="47.24597" lon="4.90733">
        <ele>477.8</ele>
        <time>2016-02-16T15:15:24Z</time>
      </trkpt>
      <trkpt lat="47.24588" lon="4.90726">
        <ele>477.5</ele>
        <time>2016-02-16T15:15:32Z</time>
      </trkpt>
      <trkpt lat="47.2458" lon="4.90721">
        <ele>477.1</ele>
        <time>2016-02-16T15:15:40Z</time>
      </trkpt>
      <trkpt lat="47.24572" lon="4.90712">
        <ele>476.2</ele>
        <time>2016-02-16T15:15:48Z</time>
      </trkpt>
      <trkpt lat="47.24564" lon="4.90704">
        <ele>475.5</ele>
        <time>2016-02-16T15:15:55Z</time>
      </trkpt>
      <trkpt lat="47.24556" lon="4.90697">
        <ele>474.9</ele>
        <time>2016-02-16T15:16:02Z</time>
      </trkpt>
      <trkpt lat="47.24549" lon="4.90688">
        <ele>474.2</ele>
        <time>2016-02-16T15:16:09Z</time>
      </trkpt>
      <trkpt lat="47.24542" lon="4.90678">
        <ele>473.6</ele>
        <time>2016-02-16T15:16:17Z</time>
      </trkpt>
      <trkpt lat="47.24537" lon="4.90666">
        <ele>472.9</ele>
        <time>2016-02-16T15:16:26Z</time>
      </trkpt>
      <trkpt lat="47.24533" lon="4.90652">
        <ele>472.5</ele>
        <time>2016-02-16T15:16:35Z</time>
      </trkpt>
      <trkpt lat="47.2453" lon="4.9064">
        <ele>472.2</ele>
        <time>2016-02-16T15:16:43Z</time>
      </trkpt>
      <trkpt lat="47.24526" lon="4.90626">
        <ele>472</ele>
        <time>2016-02-16T15:16:51Z</time>
      </trkpt>
      <trkpt lat="47.2452" lon="4.90615">
        <ele>471.9</ele>
        <time>2016-02-16T15:16:58Z</time>
      </trkpt>
      <trkpt lat="47.24514" lon="4.90603">
        <ele>471.8</ele>
        <time>2016-02-16T15:17:06Z</time>
      </trkpt>
      <trkpt lat="47.24507" lon="4.90594">
        <ele>471.9</ele>
        <time>2016-02-16T15:17:13Z</time>
      </trkpt>
      <trkpt lat="47.245" lon="4.90585">
        <ele>472</ele>
        <time>2016-02-16T15:17:20Z</time>
      </trkpt>
      <trkpt lat="47.24492" lon="4.90576">
        <ele>471.7</ele>
        <time>2016-02-16T15:17:28Z</time>
      </trkpt>
      <trkpt lat="47.24483" lon="4.90568">
        <ele>471.4</ele>
        <time>2016-02-16T15:17:36Z</time>
      </trkpt>
      <trkpt lat="47.24475" lon="4.90561">
        <ele>471.2</ele>
        <time>2016-02-16T15:17:43Z</time>
      </trkpt>
      <trkpt lat="47.24467" lon="4.90554">
        <ele>470.9</ele>
        <time>2016-02-16T15:17:50Z</time>
      </trkpt>
      <trkpt lat="47.24459" lon="4.90548">
        <ele>470.7</ele>
        <time>2016-02-16T15:17:57Z</time>
      </trkpt>
      <trkpt lat="47.24451" lon="4.90541">
        <ele>470.5</ele>
        <time>2016-02-16T15:18:04Z</time>
      </trkpt>
      <trkpt lat="47.24443" lon="4.90534">
        <ele>470.2</ele>
        <time>2016-02-16T15:18:11Z</time>
      </trkpt>
      <trkpt lat="47.24435" lon="4.90526">
        <ele>469.9</ele>
        <time>2016-02-16T15:18:18Z</time>
      </trkpt>
      <trkpt lat="47.24427" lon="4.90518">
        <ele>469.6</ele>
        <time>2016-02-16T15:18:25Z</time>
      </trkpt>
      <trkpt lat="47.24419" lon="4.9051">
        <ele>469.4</ele>
        <time>2016-02-16T15:18:32Z</time>
      </trkpt>
      <trkpt lat="47.24411" lon="4.90502">
        <ele>469.1</ele>
        <time>2016-02-16T15:18:40Z</time>
      </trkpt>
      <trkpt lat="47.24403" lon="4.90495">
        <ele>468.9</ele>
        <time>2016-02-16T15:18:48Z</time>
      </trkpt>
      <trkpt lat="47.24395" lon="4.90486">
        <ele>468.6</ele>
        <time>2016-02-16T15:18:56Z</time>
      </trkpt>
      <trkpt lat="47.24388" lon="4.90478">
        <ele>468.2</ele>
        <time>2016-02-16T15:19:03Z</time>
      </trkpt>
      <trkpt lat="47.2438" lon="4.9047">
        <ele>467.7</ele>
        <time>2016-02-16T15:19:11Z</time>
      </trkpt>
      <trkpt lat="47.24372" lon="4.90462">
        <ele>467.1</ele>
        <time>2016-02-16T15:19:19Z</time>
      </trkpt>
      <trkpt lat="47.24364" lon="4.90454">
        <ele>466.5</ele>
        <time>2016-02-16T15:19:26Z</time>
      </trkpt>
      <trkpt lat="47.24356" lon="4.90446">
        <ele>465.9</ele>
        <time>2016-02-16T15:19:34Z</time>
      </trkpt>
      <trkpt lat="47.24348" lon="4.90437">
        <ele>465</ele>
        <time>2016-02-16T15:19:42Z</time>
      </trkpt>
      <trkpt lat="47.2434" lon="4.9043">
        <ele>464.3</ele>
        <time>2016-02-16T15:19:50Z</time>
      </trkpt>
      <trkpt lat="47.24332" lon="4.90422">
        <ele>463.5</ele>
        <time>2016-02-16T15:19:58Z</time>
      </trkpt>
      <trkpt lat="47.24324" lon="4.90415">
        <ele>463.5</ele>
        <time>2016-02-16T15:20:06Z</time>
      </trkpt>
      <trkpt lat="47.24316" lon="4.90406">
        <ele>463.9</ele>
        <time>2016-02-16T15:20:14Z</time>
      </trkpt>
      <trkpt lat="47.24307" lon="4.90398">
        <ele>464.3</ele>
        <time>2016-02-16T15:20:22Z</time>
      </trkpt>
      <trkpt lat="47.24299" lon="4.9039">
        <ele>464.7</ele>
        <time>2016-02-16T15:20:30Z</time>
      </trkpt>
      <trkpt lat="47.24292" lon="4.90382">
        <ele>465</ele>
        <time>2016-02-16T15:20:38Z</time>
      </trkpt>
      <trkpt lat="47.24285" lon="4.90373">
        <ele>465.2</ele>
        <time>2016-02-16T15:20:46Z</time>
      </trkpt>
      <trkpt lat="47.24279" lon="4.90361">
        <ele>465.4</ele>
        <time>2016-02-16T15:20:54Z</time>
      </trkpt>
      <trkpt lat="47.24274" lon="4.90349">
        <ele>465.5</ele>
        <time>2016-02-16T15:21:02Z</time>
      </trkpt>
      <trkpt lat="47.2427" lon="4.90337">
        <ele>465.5</ele>
        <time>2016-02-16T15:21:11Z</time>
      </trkpt>
      <trkpt lat="47.24264" lon="4.90325">
        <ele>465.7</ele>
        <time>2016-02-16T15:21:21Z</time>
      </trkpt>
      <trkpt lat="47.24258" lon="4.90315">
        <ele>465.9</ele>
        <time>2016-02-16T15:21:30Z</time>
      </trkpt>
      <trkpt lat="47.24251" lon="4.90304">
        <ele>466</ele>
        <time>2016-02-16T15:21:39Z</time>
      </trkpt>
      <trkpt lat="47.24246" lon="4.90292">
        <ele>466.3</ele>
        <time>2016-02-16T15:21:47Z</time>
      </trkpt>
      <trkpt lat="47.2424" lon="4.90281">
        <ele>466.7</ele>
        <time>2016-02-16T15:21:55Z</time>
      </trkpt>
      <trkpt lat="47.24235" lon="4.90269">
        <ele>467.1</ele>
        <time>2016-02-16T15:22:03Z</time>
      </trkpt>
      <trkpt lat="47.24229" lon="4.90257">
        <ele>467.5</ele>
        <time>2016-02-16T15:22:12Z</time>
      </trkpt>
      <trkpt lat="47.24223" lon="4.90247">
        <ele>467.8</ele>
        <time>2016-02-16T15:22:20Z</time>
      </trkpt>
      <trkpt lat="47.24217" lon="4.90236">
        <ele>467.9</ele>
        <time>2016-02-16T15:22:28Z</time>
      </trkpt>
      <trkpt lat="47.24211" lon="4.90224">
        <ele>468</ele>
        <time>2016-02-16T15:22:36Z</time>
      </trkpt>
      <trkpt lat="47.24204" lon="4.90213">
        <ele>468.2</ele>
        <time>2016-02-16T15:22:44Z</time>
      </trkpt>
      <trkpt lat="47.24198" lon="4.90202">
        <ele>468.4</ele>
        <time>2016-02-16T15:22:52Z</time>
      </trkpt>
      <trkpt lat="47.24191" lon="4.90192">
        <ele>468.6</ele>
        <time>2016-02-16T15:23:00Z</time>
      </trkpt>
      <trkpt lat="47.24185" lon="4.90181">
        <ele>468.9</ele>
        <time>2016-02-16T15:23:09Z</time>
      </trkpt>
      <trkpt lat="47.24179" lon="4.9017">
        <ele>469.1</ele>
        <time>2016-02-16T15:23:17Z</time>
      </trkpt>
      <trkpt lat="47.24172" lon="4.90159">
        <ele>469.4</ele>
        <time>2016-02-16T15:23:25Z</time>
      </trkpt>
      <trkpt lat="47.24166" lon="4.90149">
        <ele>469.8</ele>
        <time>2016-02-16T15:23:33Z</time>
      </trkpt>
      <trkpt lat="47.2416" lon="4.90139">
        <ele>470.1</ele>
        <time>2016-02-16T15:23:41Z</time>
      </trkpt>
      <trkpt lat="47.24152" lon="4.9013">
        <ele>470.4</ele>
        <time>2016-02-16T15:23:50Z</time>
      </trkpt>
      <trkpt lat="47.24145" lon="4.90121">
        <ele>470.8</ele>
        <time>2016-02-16T15:23:57Z</time>
      </trkpt>
      <trkpt lat="47.24137" lon="4.90115">
        <ele>471.2</ele>
        <time>2016-02-16T15:24:05Z</time>
      </trkpt>
      <trkpt lat="47.24129" lon="4.90109">
        <ele>471.6</ele>
        <time>2016-02-16T15:24:13Z</time>
      </trkpt>
      <trkpt lat="47.24119" lon="4.90103">
        <ele>472.1</ele>
        <time>2016-02-16T15:24:22Z</time>
      </trkpt>
      <trkpt lat="47.24111" lon="4.90096">
        <ele>472.5</ele>
        <time>2016-02-16T15:24:30Z</time>
      </trkpt>
      <trkpt lat="47.24103" lon="4.90087">
        <ele>472.9</ele>
        <time>2016-02-16T15:24:38Z</time>
      </trkpt>
      <trkpt lat="47.24095" lon="4.90079">
        <ele>473.2</ele>
        <time>2016-02-16T15:24:46Z</time>
      </trkpt>
      <trkpt lat="47.24087" lon="4.9007">
        <ele>473.5</ele>
        <time>2016-02-16T15:24:55Z</time>
      </trkpt>
      <trkpt lat="47.24079" lon="4.90061">
        <ele>473.5</ele>
        <time>2016-02-16T15:25:03Z</time>
      </trkpt>
      <trkpt lat="47.24071" lon="4.90053">
        <ele>473.4</ele>
        <time>2016-02-16T15:25:12Z</time>
      </trkpt>
      <trkpt lat="47.24064" lon="4.90044">
        <ele>473.3</ele>
        <time>2016-02-16T15:25:20Z</time>
      </trkpt>
      <trkpt lat="47.24056" lon="4.90036">
        <ele>473.1</ele>
        <time>2016-02-16T15:25:28Z</time>
      </trkpt>
      <trkpt lat="47.24048" lon="4.90028">
        <ele>472.9</ele>
        <time>2016-02-16T15:25:36Z</time>
      </trkpt>
      <trkpt lat="47.2404" lon="4.90019">
        <ele>472.7</ele>
        <time>2016-02-16T15:25:44Z</time>
      </trkpt>
      <trkpt lat="47.24031" lon="4.90012">
        <ele>472.4</ele>
        <time>2016-02-16T15:25:52Z</time>
      </trkpt>
      <trkpt lat="47.24023" lon="4.90006">
        <ele>472.2</ele>
        <time>2016-02-16T15:26:00Z</time>
      </trkpt>
      <trkpt lat="47.24014" lon="4.9">
        <ele>472</ele>
        <time>2016-02-16T15:26:08Z</time>
      </trkpt>
      <trkpt lat="47.24005" lon="4.89997">
        <ele>472</ele>
        <time>2016-02-16T15:26:16Z</time>
      </trkpt>
      <trkpt lat="47.23995" lon="4.89992">
        <ele>471.9</ele>
        <time>2016-02-16T15:26:24Z</time>
      </trkpt>
      <trkpt lat="47.23986" lon="4.89987">
        <ele>471.8</ele>
        <time>2016-02-16T15:26:32Z</time>
      </trkpt>
      <trkpt lat="47.23977" lon="4.89984">
        <ele>471.8</ele>
        <time>2016-02-16T15:26:40Z</time>
      </trkpt>
      <trkpt lat="47.23967" lon="4.8998">
        <ele>471.8</ele>
        <time>2016-02-16T15:26:48Z</time>
      </trkpt>
      <trkpt lat="47.23957" lon="4.89977">
        <ele>471.7</ele>
        <time>2016-02-16T15:26:56Z</time>
      </trkpt>
      <trkpt lat="47.23948" lon="4.89975">
        <ele>471.7</ele>
        <time>2016-02-16T15:27:04Z</time>
      </trkpt>
      <trkpt lat="47.23938" lon="4.89973">
        <ele>471.7</ele>
        <time>2016-02-16T15:27:12Z</time>
      </trkpt>
      <trkpt lat="47.23929" lon="4.89972">
        <ele>471.7</ele>
        <time>2016-02-16T15:27:20Z</time>
      </trkpt>
      <trkpt lat="47.2392" lon="4.89971">
        <ele>471.6</ele>
        <time>2016-02-16T15:27:28Z</time>
      </trkpt>
      <trkpt lat="47.2391" lon="4.89971">
        <ele>471.5</ele>
        <time>2016-02-16T15:27:36Z</time>
      </trkpt>
      <trkpt lat="47.239" lon="4.89972">
        <ele>471.3</ele>
        <time>2016-02-16T15:27:43Z</time>
      </trkpt>
      <trkpt lat="47.2389" lon="4.89971">
        <ele>471.1</ele>
        <time>2016-02-16T15:27:51Z</time>
      </trkpt>
      <trkpt lat="47.23881" lon="4.8997">
        <ele>470.9</ele>
        <time>2016-02-16T15:27:58Z</time>
      </trkpt>
      <trkpt lat="47.23872" lon="4.89966">
        <ele>470.6</ele>
        <time>2016-02-16T15:28:05Z</time>
      </trkpt>
      <trkpt lat="47.23862" lon="4.89961">
        <ele>470.3</ele>
        <time>2016-02-16T15:28:13Z</time>
      </trkpt>
      <trkpt lat="47.23853" lon="4.89959">
        <ele>470</ele>
        <time>2016-02-16T15:28:20Z</time>
      </trkpt>
      <trkpt lat="47.23844" lon="4.89957">
        <ele>469.7</ele>
        <time>2016-02-16T15:28:27Z</time>
      </trkpt>
      <trkpt lat="47.23835" lon="4.89959">
        <ele>469.5</ele>
        <time>2016-02-16T15:28:36Z</time>
      </trkpt>
      <trkpt lat="47.23826" lon="4.8996">
        <ele>469.6</ele>
        <time>2016-02-16T15:28:44Z</time>
      </trkpt>
      <trkpt lat="47.23816" lon="4.8996">
        <ele>469.8</ele>
        <time>2016-02-16T15:28:52Z</time>
      </trkpt>
      <trkpt lat="47.23805" lon="4.89962">
        <ele>469.9</ele>
        <time>2016-02-16T15:29:00Z</time>
      </trkpt>
      <trkpt lat="47.23796" lon="4.89963">
        <ele>470.1</ele>
        <time>2016-02-16T15:29:08Z</time>
      </trkpt>
      <trkpt lat="47.23787" lon="4.89963">
        <ele>470.3</ele>
        <time>2016-02-16T15:29:15Z</time>
      </trkpt>
      <trkpt lat="47.23777" lon="4.89965">
        <ele>470.5</ele>
        <time>2016-02-16T15:29:23Z</time>
      </trkpt>
      <trkpt lat="47.23768" lon="4.89969">
        <ele>470.9</ele>
        <time>2016-02-16T15:29:31Z</time>
      </trkpt>
      <trkpt lat="47.2376" lon="4.89975">
        <ele>471.4</ele>
        <time>2016-02-16T15:29:39Z</time>
      </trkpt>
      <trkpt lat="47.23751" lon="4.89982">
        <ele>471.9</ele>
        <time>2016-02-16T15:29:47Z</time>
      </trkpt>
      <trkpt lat="47.23743" lon="4.89989">
        <ele>471.9</ele>
        <time>2016-02-16T15:29:55Z</time>
      </trkpt>
      <trkpt lat="47.23735" lon="4.89999">
        <ele>472</ele>
        <time>2016-02-16T15:30:04Z</time>
      </trkpt>
      <trkpt lat="47.23729" lon="4.90008">
        <ele>472</ele>
        <time>2016-02-16T15:30:12Z</time>
      </trkpt>
      <trkpt lat="47.23724" lon="4.90021">
        <ele>472</ele>
        <time>2016-02-16T15:30:21Z</time>
      </trkpt>
      <trkpt lat="47.23718" lon="4.90033">
        <ele>472</ele>
        <time>2016-02-16T15:30:29Z</time>
      </trkpt>
      <trkpt lat="47.23714" lon="4.90044">
        <ele>472.1</ele>
        <time>2016-02-16T15:30:36Z</time>
      </trkpt>
      <trkpt lat="47.23708" lon="4.90056">
        <ele>472.2</ele>
        <time>2016-02-16T15:30:44Z</time>
      </trkpt>
      <trkpt lat="47.23701" lon="4.90066">
        <ele>472.1</ele>
        <time>2016-02-16T15:30:51Z</time>
      </trkpt>
      <trkpt lat="47.23693" lon="4.90075">
        <ele>472</ele>
        <time>2016-02-16T15:30:58Z</time>
      </trkpt>
      <trkpt lat="47.23686" lon="4.90083">
        <ele>471.9</ele>
        <time>2016-02-16T15:31:05Z</time>
      </trkpt>
      <trkpt lat="47.23678" lon="4.90091">
        <ele>471.6</ele>
        <time>2016-02-16T15:31:13Z</time>
      </trkpt>
      <trkpt lat="47.2367" lon="4.901">
        <ele>471.2</ele>
        <time>2016-02-16T15:31:22Z</time>
      </trkpt>
      <trkpt lat="47.23664" lon="4.9011">
        <ele>470.8</ele>
        <time>2016-02-16T15:31:29Z</time>
      </trkpt>
      <trkpt lat="47.23659" lon="4.90122">
        <ele>470.5</ele>
        <time>2016-02-16T15:31:36Z</time>
      </trkpt>
      <trkpt lat="47.23655" lon="4.90136">
        <ele>470.2</ele>
        <time>2016-02-16T15:31:44Z</time>
      </trkpt>
      <trkpt lat="47.23652" lon="4.90149">
        <ele>470</ele>
        <time>2016-02-16T15:31:52Z</time>
      </trkpt>
      <trkpt lat="47.23649" lon="4.90162">
        <ele>469.9</ele>
        <time>2016-02-16T15:32:00Z</time>
      </trkpt>
      <trkpt lat="47.23648" lon="4.90175">
        <ele>470</ele>
        <time>2016-02-16T15:32:08Z</time>
      </trkpt>
      <trkpt lat="47.23646" lon="4.90189">
        <ele>470.1</ele>
        <time>2016-02-16T15:33:21Z</time>
      </trkpt>
      <trkpt lat="47.23646" lon="4.90203">
        <ele>470.4</ele>
        <time>2016-02-16T15:33:30Z</time>
      </trkpt>
      <trkpt lat="47.23645" lon="4.90217">
        <ele>470.6</ele>
        <time>2016-02-16T15:33:38Z</time>
      </trkpt>
      <trkpt lat="47.23646" lon="4.90231">
        <ele>470.9</ele>
        <time>2016-02-16T15:33:47Z</time>
      </trkpt>
      <trkpt lat="47.2365" lon="4.90244">
        <ele>471.3</ele>
        <time>2016-02-16T15:33:59Z</time>
      </trkpt>
      <trkpt lat="47.23651" lon="4.90257">
        <ele>471.6</ele>
        <time>2016-02-16T15:34:07Z</time>
      </trkpt>
      <trkpt lat="47.23651" lon="4.90272">
        <ele>471.9</ele>
        <time>2016-02-16T15:34:15Z</time>
      </trkpt>
      <trkpt lat="47.23651" lon="4.90286">
        <ele>472.1</ele>
        <time>2016-02-16T15:34:22Z</time>
      </trkpt>
      <trkpt lat="47.23653" lon="4.903">
        <ele>472.4</ele>
        <time>2016-02-16T15:34:31Z</time>
      </trkpt>
      <trkpt lat="47.23655" lon="4.90313">
        <ele>472.6</ele>
        <time>2016-02-16T15:34:39Z</time>
      </trkpt>
      <trkpt lat="47.23657" lon="4.90327">
        <ele>472.9</ele>
        <time>2016-02-16T15:34:47Z</time>
      </trkpt>
      <trkpt lat="47.23659" lon="4.90341">
        <ele>473.3</ele>
        <time>2016-02-16T15:34:55Z</time>
      </trkpt>
      <trkpt lat="47.23658" lon="4.90355">
        <ele>473.7</ele>
        <time>2016-02-16T15:35:03Z</time>
      </trkpt>
      <trkpt lat="47.23659" lon="4.9037">
        <ele>474.3</ele>
        <time>2016-02-16T15:35:11Z</time>
      </trkpt>
      <trkpt lat="47.23657" lon="4.90385">
        <ele>474.8</ele>
        <time>2016-02-16T15:35:19Z</time>
      </trkpt>
      <trkpt lat="47.23655" lon="4.90399">
        <ele>475.2</ele>
        <time>2016-02-16T15:35:27Z</time>
      </trkpt>
      <trkpt lat="47.23653" lon="4.90412">
        <ele>475.7</ele>
        <time>2016-02-16T15:35:37Z</time>
      </trkpt>
      <trkpt lat="47.23652" lon="4.90425">
        <ele>476.1</ele>
        <time>2016-02-16T15:35:48Z</time>
      </trkpt>
      <trkpt lat="47.2365" lon="4.90439">
        <ele>476.5</ele>
        <time>2016-02-16T15:35:57Z</time>
      </trkpt>
      <trkpt lat="47.23647" lon="4.90452">
        <ele>476.8</ele>
        <time>2016-02-16T15:36:06Z</time>
      </trkpt>
      <trkpt lat="47.23639" lon="4.90462">
        <ele>476.9</ele>
        <time>2016-02-16T15:36:15Z</time>
      </trkpt>
      <trkpt lat="47.23629" lon="4.90461">
        <ele>476.7</ele>
        <time>2016-02-16T15:37:12Z</time>
      </trkpt>
      <trkpt lat="47.23619" lon="4.90461">
        <ele>476.4</ele>
        <time>2016-02-16T15:37:21Z</time>
      </trkpt>
      <trkpt lat="47.2361" lon="4.90458">
        <ele>476.1</ele>
        <time>2016-02-16T15:37:30Z</time>
      </trkpt>
      <trkpt lat="47.23601" lon="4.90457">
        <ele>475.9</ele>
        <time>2016-02-16T15:37:39Z</time>
      </trkpt>
      <trkpt lat="47.23591" lon="4.90455">
        <ele>475.6</ele>
        <time>2016-02-16T15:37:47Z</time>
      </trkpt>
      <trkpt lat="47.23582" lon="4.90454">
        <ele>475.5</ele>
        <time>2016-02-16T15:37:55Z</time>
      </trkpt>
      <trkpt lat="47.23572" lon="4.90451">
        <ele>476.1</ele>
        <time>2016-02-16T15:38:04Z</time>
      </trkpt>
      <trkpt lat="47.23562" lon="4.90449">
        <ele>476.6</ele>
        <time>2016-02-16T15:38:14Z</time>
      </trkpt>
      <trkpt lat="47.23553" lon="4.90447">
        <ele>477.1</ele>
        <time>2016-02-16T15:38:23Z</time>
      </trkpt>
      <trkpt lat="47.23543" lon="4.90445">
        <ele>477.6</ele>
        <time>2016-02-16T15:38:31Z</time>
      </trkpt>
      <trkpt lat="47.23534" lon="4.90444">
        <ele>478.1</ele>
        <time>2016-02-16T15:38:39Z</time>
      </trkpt>
      <trkpt lat="47.23524" lon="4.90443">
        <ele>478.6</ele>
        <time>2016-02-16T15:38:48Z</time>
      </trkpt>
      <trkpt lat="47.23514" lon="4.90441">
        <ele>479.1</ele>
        <time>2016-02-16T15:38:57Z</time>
      </trkpt>
      <trkpt lat="47.23505" lon="4.90439">
        <ele>479.5</ele>
        <time>2016-02-16T15:39:05Z</time>
      </trkpt>
      <trkpt lat="47.23495" lon="4.90437">
        <ele>480</ele>
        <time>2016-02-16T15:39:14Z</time>
      </trkpt>
      <trkpt lat="47.23486" lon="4.90435">
        <ele>480.4</ele>
        <time>2016-02-16T15:39:22Z</time>
      </trkpt>
      <trkpt lat="47.23476" lon="4.90433">
        <ele>480.8</ele>
        <time>2016-02-16T15:39:31Z</time>
      </trkpt>
      <trkpt lat="47.23468" lon="4.90431">
        <ele>481.1</ele>
        <time>2016-02-16T15:39:40Z</time>
      </trkpt>
      <trkpt lat="47.23458" lon="4.90429">
        <ele>481.4</ele>
        <time>2016-02-16T15:39:50Z</time>
      </trkpt>
      <trkpt lat="47.23449" lon="4.90426">
        <ele>481.7</ele>
        <time>2016-02-16T15:39:59Z</time>
      </trkpt>
      <trkpt lat="47.23439" lon="4.90422">
        <ele>481.7</ele>
        <time>2016-02-16T15:40:08Z</time>
      </trkpt>
      <trkpt lat="47.2343" lon="4.90418">
        <ele>481.6</ele>
        <time>2016-02-16T15:40:17Z</time>
      </trkpt>
      <trkpt lat="47.23421" lon="4.90414">
        <ele>481.7</ele>
        <time>2016-02-16T15:40:26Z</time>
      </trkpt>
      <trkpt lat="47.23412" lon="4.90413">
        <ele>482.6</ele>
        <time>2016-02-16T15:41:35Z</time>
      </trkpt>
      <trkpt lat="47.23403" lon="4.90411">
        <ele>484</ele>
        <time>2016-02-16T15:41:44Z</time>
      </trkpt>
      <trkpt lat="47.23393" lon="4.90408">
        <ele>485.3</ele>
        <time>2016-02-16T15:41:53Z</time>
      </trkpt>
      <trkpt lat="47.23384" lon="4.90406">
        <ele>486.7</ele>
        <time>2016-02-16T15:42:02Z</time>
      </trkpt>
      <trkpt lat="47.23374" lon="4.90404">
        <ele>488.1</ele>
        <time>2016-02-16T15:42:11Z</time>
      </trkpt>
      <trkpt lat="47.23365" lon="4.90401">
        <ele>489.3</ele>
        <time>2016-02-16T15:42:20Z</time>
      </trkpt>
      <trkpt lat="47.23356" lon="4.904">
        <ele>490.6</ele>
        <time>2016-02-16T15:42:28Z</time>
      </trkpt>
      <trkpt lat="47.23346" lon="4.90398">
        <ele>491.7</ele>
        <time>2016-02-16T15:42:37Z</time>
      </trkpt>
      <trkpt lat="47.23337" lon="4.90391">
        <ele>492.1</ele>
        <time>2016-02-16T15:42:44Z</time>
      </trkpt>
      <trkpt lat="47.23329" lon="4.90386">
        <ele>492.5</ele>
        <time>2016-02-16T15:42:52Z</time>
      </trkpt>
      <trkpt lat="47.2332" lon="4.90377">
        <ele>492.2</ele>
        <time>2016-02-16T15:43:00Z</time>
      </trkpt>
      <trkpt lat="47.23311" lon="4.90374">
        <ele>493</ele>
        <time>2016-02-16T15:43:07Z</time>
      </trkpt>
      <trkpt lat="47.23303" lon="4.90369">
        <ele>493.4</ele>
        <time>2016-02-16T15:43:15Z</time>
      </trkpt>
      <trkpt lat="47.23294" lon="4.90368">
        <ele>494.5</ele>
        <time>2016-02-16T15:43:36Z</time>
      </trkpt>
      <trkpt lat="47.23285" lon="4.90363">
        <ele>495.1</ele>
        <time>2016-02-16T15:44:04Z</time>
      </trkpt>
      <trkpt lat="47.23276" lon="4.90358">
        <ele>495.3</ele>
        <time>2016-02-16T15:44:16Z</time>
      </trkpt>
      <trkpt lat="47.23268" lon="4.90352">
        <ele>495.3</ele>
        <time>2016-02-16T15:44:27Z</time>
      </trkpt>
      <trkpt lat="47.23259" lon="4.90346">
        <ele>495.1</ele>
        <time>2016-02-16T15:44:38Z</time>
      </trkpt>
      <trkpt lat="47.2325" lon="4.9034">
        <ele>495.3</ele>
        <time>2016-02-16T15:44:47Z</time>
      </trkpt>
      <trkpt lat="47.23242" lon="4.90335">
        <ele>495.4</ele>
        <time>2016-02-16T15:45:01Z</time>
      </trkpt>
      <trkpt lat="47.23233" lon="4.90329">
        <ele>495.8</ele>
        <time>2016-02-16T15:46:01Z</time>
      </trkpt>
      <trkpt lat="47.23223" lon="4.90328">
        <ele>497.1</ele>
        <time>2016-02-16T15:46:15Z</time>
      </trkpt>
      <trkpt lat="47.23214" lon="4.90328">
        <ele>498.6</ele>
        <time>2016-02-16T15:46:23Z</time>
      </trkpt>
      <trkpt lat="47.23205" lon="4.90329">
        <ele>500</ele>
        <time>2016-02-16T15:46:32Z</time>
      </trkpt>
      <trkpt lat="47.23196" lon="4.90332">
        <ele>501.6</ele>
        <time>2016-02-16T15:46:44Z</time>
      </trkpt>
      <trkpt lat="47.23187" lon="4.90336">
        <ele>503.4</ele>
        <time>2016-02-16T15:46:57Z</time>
      </trkpt>
      <trkpt lat="47.23178" lon="4.90344">
        <ele>505.6</ele>
        <time>2016-02-16T15:47:07Z</time>
      </trkpt>
      <trkpt lat="47.23172" lon="4.90354">
        <ele>507.5</ele>
        <time>2016-02-16T15:47:15Z</time>
      </trkpt>
      <trkpt lat="47.23168" lon="4.90366">
        <ele>509.3</ele>
        <time>2016-02-16T15:47:25Z</time>
      </trkpt>
      <trkpt lat="47.23164" lon="4.9038">
        <ele>510.7</ele>
        <time>2016-02-16T15:47:35Z</time>
      </trkpt>
      <trkpt lat="47.2316" lon="4.90393">
        <ele>511.8</ele>
        <time>2016-02-16T15:47:42Z</time>
      </trkpt>
      <trkpt lat="47.2316" lon="4.90407">
        <ele>513.2</ele>
        <time>2016-02-16T15:47:49Z</time>
      </trkpt>
      <trkpt lat="47.23155" lon="4.90418">
        <ele>513.7</ele>
        <time>2016-02-16T15:47:58Z</time>
      </trkpt>
      <trkpt lat="47.23151" lon="4.90431">
        <ele>513.7</ele>
        <time>2016-02-16T15:48:06Z</time>
      </trkpt>
      <trkpt lat="47.23144" lon="4.90441">
        <ele>513.2</ele>
        <time>2016-02-16T15:48:14Z</time>
      </trkpt>
      <trkpt lat="47.23136" lon="4.90446">
        <ele>512.3</ele>
        <time>2016-02-16T15:48:22Z</time>
      </trkpt>
      <trkpt lat="47.23126" lon="4.90451">
        <ele>511.1</ele>
        <time>2016-02-16T15:48:30Z</time>
      </trkpt>
      <trkpt lat="47.23119" lon="4.90459">
        <ele>510.1</ele>
        <time>2016-02-16T15:48:38Z</time>
      </trkpt>
      <trkpt lat="47.23111" lon="4.90468">
        <ele>509</ele>
        <time>2016-02-16T15:48:46Z</time>
      </trkpt>
      <trkpt lat="47.23104" lon="4.90477">
        <ele>507.9</ele>
        <time>2016-02-16T15:48:54Z</time>
      </trkpt>
      <trkpt lat="47.23097" lon="4.90486">
        <ele>506.6</ele>
        <time>2016-02-16T15:49:03Z</time>
      </trkpt>
      <trkpt lat="47.2309" lon="4.90495">
        <ele>505.3</ele>
        <time>2016-02-16T15:49:12Z</time>
      </trkpt>
      <trkpt lat="47.23082" lon="4.90504">
        <ele>503.7</ele>
        <time>2016-02-16T15:49:21Z</time>
      </trkpt>
      <trkpt lat="47.23073" lon="4.90511">
        <ele>502</ele>
        <time>2016-02-16T15:49:30Z</time>
      </trkpt>
      <trkpt lat="47.23066" lon="4.9052">
        <ele>500.4</ele>
        <time>2016-02-16T15:49:40Z</time>
      </trkpt>
      <trkpt lat="47.23058" lon="4.90529">
        <ele>499.1</ele>
        <time>2016-02-16T15:49:50Z</time>
      </trkpt>
      <trkpt lat="47.2305" lon="4.90537">
        <ele>497.6</ele>
        <time>2016-02-16T15:50:00Z</time>
      </trkpt>
      <trkpt lat="47.23047" lon="4.9055">
        <ele>497.1</ele>
        <time>2016-02-16T15:50:13Z</time>
      </trkpt>
      <trkpt lat="47.23045" lon="4.90564">
        <ele>496.9</ele>
        <time>2016-02-16T15:50:22Z</time>
      </trkpt>
      <trkpt lat="47.23045" lon="4.90578">
        <ele>497</ele>
        <time>2016-02-16T15:50:32Z</time>
      </trkpt>
      <trkpt lat="47.23045" lon="4.90591">
        <ele>497.2</ele>
        <time>2016-02-16T15:50:42Z</time>
      </trkpt>
      <trkpt lat="47.23044" lon="4.90605">
        <ele>497.2</ele>
        <time>2016-02-16T15:50:53Z</time>
      </trkpt>
      <trkpt lat="47.23047" lon="4.90609">
        <ele>497.8</ele>
        <time>2016-02-16T15:51:45Z</time>
      </trkpt>
    </trkseg>
  </trk>
</gpx>